Observation data for Throckmorton on 05/14/2018      Previous  Date  Next       Current Mesonet Observations  Soil Data  Daily Summary Page  Observations in Plain Language
KTH1 140500Z 13006KT 25/18 A2993 RMK A01 T02510182  RH  065%=      5-min Rain = 0
KTH1 140501Z 13006KT 25/18 A2993 RMK A01 T02510182  RH  065%=      5-min Rain = 0
KTH1 140502Z 13006KT 25/18 A2993 RMK A01 T02510182  RH  066%=      5-min Rain = 0
KTH1 140503Z 13006KT 25/18 A2993 RMK A01 T02510182  RH  066%=      5-min Rain = 0
KTH1 140504Z 13006KT 25/18 A2993 RMK A01 T02500182  RH  066%=      5-min Rain = 0
KTH1 140505Z 13006KT 25/18 A2993 RMK A01 T02500182  RH  066%=      5-min Rain = 0
KTH1 140506Z 13006KT 25/18 A2993 RMK A01 T02500182  RH  066%=      5-min Rain = 0
KTH1 140507Z 14005KT 25/18 A2993 RMK A01 T02500182  RH  066%=      5-min Rain = 0
KTH1 140508Z 13005KT 25/18 A2993 RMK A01 T02500182  RH  066%=      5-min Rain = 0
KTH1 140509Z 13006KT 25/18 A2993 RMK A01 T02500182  RH  066%=      5-min Rain = 0
KTH1 140510Z 13006KT 25/18 A2993 RMK A01 T02490182  RH  066%=      5-min Rain = 0
KTH1 140511Z 14008KT 25/18 A2993 RMK A01 T02500183  RH  066%=      5-min Rain = 0
KTH1 140512Z 14006KT 25/18 A2993 RMK A01 T02500182  RH  066%=      5-min Rain = 0
KTH1 140513Z 14006KT 25/18 A2993 RMK A01 T02500183  RH  066%=      5-min Rain = 0
KTH1 140514Z 13007KT 25/18 A2993 RMK A01 T02490183  RH  067%=      5-min Rain = 0
KTH1 140515Z 14006KT 25/18 A2992 RMK A01 T02490183  RH  066%=      5-min Rain = 0
KTH1 140516Z 14007KT 25/18 A2992 RMK A01 T02490183  RH  066%=      5-min Rain = 0
KTH1 140517Z 14007KT 25/18 A2992 RMK A01 T02490183  RH  066%=      5-min Rain = 0
KTH1 140518Z 14007KT 25/18 A2992 RMK A01 T02490182  RH  066%=      5-min Rain = 0
KTH1 140519Z 13006KT 25/18 A2992 RMK A01 T02490183  RH  067%=      5-min Rain = 0
KTH1 140520Z 14006KT 25/18 A2992 RMK A01 T02490183  RH  067%=      5-min Rain = 0
KTH1 140521Z 13006KT 25/18 A2992 RMK A01 T02480183  RH  067%=      5-min Rain = 0
KTH1 140522Z 13007KT 25/18 A2992 RMK A01 T02480183  RH  067%=      5-min Rain = 0
KTH1 140523Z 13006KT 25/18 A2992 RMK A01 T02480183  RH  067%=      5-min Rain = 0
KTH1 140524Z 13006KT 25/18 A2992 RMK A01 T02480183  RH  067%=      5-min Rain = 0
KTH1 140525Z 12006KT 25/18 A2992 RMK A01 T02480182  RH  067%=      5-min Rain = 0
KTH1 140526Z 13005KT 25/18 A2992 RMK A01 T02480183  RH  067%=      5-min Rain = 0
KTH1 140527Z 13005KT 25/18 A2992 RMK A01 T02480183  RH  067%=      5-min Rain = 0
KTH1 140528Z 13006KT 25/18 A2992 RMK A01 T02470183  RH  067%=      5-min Rain = 0
KTH1 140529Z 13005KT 25/18 A2992 RMK A01 T02470183  RH  067%=      5-min Rain = 0
KTH1 140530Z 13006KT 25/18 A2992 RMK A01 T02470183  RH  068%=      5-min Rain = 0
KTH1 140531Z 13007KT 25/18 A2992 RMK A01 T02460183  RH  068%=      5-min Rain = 0
KTH1 140532Z 13005KT 25/18 A2992 RMK A01 T02460183  RH  068%=      5-min Rain = 0
KTH1 140533Z 13005KT 25/18 A2992 RMK A01 T02460183  RH  068%=      5-min Rain = 0
KTH1 140534Z 13006KT 25/18 A2992 RMK A01 T02460183  RH  068%=      5-min Rain = 0
KTH1 140535Z 13006KT 25/18 A2992 RMK A01 T02450183  RH  068%=      5-min Rain = 0
KTH1 140536Z 14006KT 25/18 A2992 RMK A01 T02450183  RH  068%=      5-min Rain = 0
KTH1 140537Z 13005KT 25/18 A2992 RMK A01 T02450183  RH  068%=      5-min Rain = 0
KTH1 140538Z 13006KT 25/18 A2992 RMK A01 T02450183  RH  069%=      5-min Rain = 0
KTH1 140539Z 14006KT 25/18 A2992 RMK A01 T02450183  RH  069%=      5-min Rain = 0
KTH1 140540Z 14006KT 24/18 A2992 RMK A01 T02440183  RH  068%=      5-min Rain = 0
KTH1 140541Z 14007KT 24/18 A2992 RMK A01 T02440183  RH  068%=      5-min Rain = 0
KTH1 140542Z 14007KT 24/18 A2992 RMK A01 T02440183  RH  068%=      5-min Rain = 0
KTH1 140543Z 14007KT 25/18 A2992 RMK A01 T02450183  RH  068%=      5-min Rain = 0
KTH1 140544Z 14008KT 25/18 A2992 RMK A01 T02450183  RH  068%=      5-min Rain = 0
KTH1 140545Z 14007KT 25/18 A2992 RMK A01 T02450182  RH  068%=      5-min Rain = 0
KTH1 140546Z 14007KT 25/18 A2992 RMK A01 T02450183  RH  068%=      5-min Rain = 0
KTH1 140547Z 14008KT 25/18 A2992 RMK A01 T02450183  RH  068%=      5-min Rain = 0
KTH1 140548Z 14008KT 25/18 A2992 RMK A01 T02460183  RH  068%=      5-min Rain = 0
KTH1 140549Z 14008KT 25/18 A2992 RMK A01 T02450183  RH  068%=      5-min Rain = 0
KTH1 140550Z 14008KT 25/18 A2992 RMK A01 T02450183  RH  068%=      5-min Rain = 0
KTH1 140551Z 14008KT 25/18 A2992 RMK A01 T02450183  RH  068%=      5-min Rain = 0
KTH1 140552Z 14008KT 25/18 A2992 RMK A01 T02450183  RH  068%=      5-min Rain = 0
KTH1 140553Z 14008KT 25/18 A2992 RMK A01 T02460183  RH  068%=      5-min Rain = 0
KTH1 140554Z 15007KT 25/18 A2992 RMK A01 T02460183  RH  068%=      5-min Rain = 0
KTH1 140555Z 15008KT 25/18 A2992 RMK A01 T02460183  RH  068%=      5-min Rain = 0
KTH1 140556Z 14008KT 25/18 A2992 RMK A01 T02460183  RH  068%=      5-min Rain = 0
KTH1 140557Z 14007KT 25/18 A2992 RMK A01 T02460183  RH  068%=      5-min Rain = 0
KTH1 140558Z 14007KT 25/18 A2992 RMK A01 T02460183  RH  068%=      5-min Rain = 0
KTH1 140559Z 15008KT 25/18 A2992 RMK A01 T02460183  RH  068%=      5-min Rain = 0
KTH1 140600Z 14007KT 25/18 A2992 RMK A01 T02460183  RH  068%=      5-min Rain = 0
KTH1 140601Z 15008KT 25/18 A2992 RMK A01 T02460183  RH  068%=      5-min Rain = 0
KTH1 140602Z 15007KT 25/18 A2992 RMK A01 T02460183  RH  068%=      5-min Rain = 0
KTH1 140603Z 15006KT 25/18 A2992 RMK A01 T02460183  RH  068%=      5-min Rain = 0
KTH1 140604Z 14007KT 25/18 A2992 RMK A01 T02450183  RH  068%=      5-min Rain = 0
KTH1 140605Z 14007KT 25/18 A2992 RMK A01 T02450183  RH  068%=      5-min Rain = 0
KTH1 140606Z 15007KT 25/18 A2992 RMK A01 T02450183  RH  068%=      5-min Rain = 0
KTH1 140607Z 14008KT 25/18 A2992 RMK A01 T02450183  RH  069%=      5-min Rain = 0
KTH1 140608Z 14007KT 24/18 A2992 RMK A01 T02440183  RH  069%=      5-min Rain = 0
KTH1 140609Z 14006KT 25/18 A2992 RMK A01 T02450183  RH  069%=      5-min Rain = 0
KTH1 140610Z 14006KT 24/18 A2992 RMK A01 T02440183  RH  069%=      5-min Rain = 0
KTH1 140611Z 14006KT 24/18 A2992 RMK A01 T02440183  RH  069%=      5-min Rain = 0
KTH1 140612Z 14007KT 24/18 A2992 RMK A01 T02440183  RH  069%=      5-min Rain = 0
KTH1 140613Z 14007KT 25/18 A2992 RMK A01 T02450183  RH  069%=      5-min Rain = 0
KTH1 140614Z 14008KT 24/18 A2992 RMK A01 T02440183  RH  069%=      5-min Rain = 0
KTH1 140615Z 14009KT 24/18 A2992 RMK A01 T02440183  RH  069%=      5-min Rain = 0
KTH1 140616Z 14007KT 24/18 A2992 RMK A01 T02440183  RH  069%=      5-min Rain = 0
KTH1 140617Z 14006KT 24/18 A2992 RMK A01 T02440183  RH  069%=      5-min Rain = 0
KTH1 140618Z 14007KT 24/18 A2991 RMK A01 T02440183  RH  069%=      5-min Rain = 0
KTH1 140619Z 14007KT 24/18 A2991 RMK A01 T02440184  RH  069%=      5-min Rain = 0
KTH1 140620Z 14007KT 24/18 A2992 RMK A01 T02440183  RH  069%=      5-min Rain = 0
KTH1 140621Z 15007KT 24/18 A2992 RMK A01 T02430183  RH  069%=      5-min Rain = 0
KTH1 140622Z 14007KT 24/18 A2992 RMK A01 T02440184  RH  069%=      5-min Rain = 0
KTH1 140623Z 14006KT 24/18 A2992 RMK A01 T02430183  RH  069%=      5-min Rain = 0
KTH1 140624Z 14007KT 24/18 A2992 RMK A01 T02430183  RH  069%=      5-min Rain = 0
KTH1 140625Z 14007KT 24/18 A2992 RMK A01 T02430183  RH  069%=      5-min Rain = 0
KTH1 140626Z 15008KT 24/18 A2992 RMK A01 T02430183  RH  069%=      5-min Rain = 0
KTH1 140627Z 14009KT 24/18 A2991 RMK A01 T02430183  RH  069%=      5-min Rain = 0
KTH1 140628Z 14005KT 24/18 A2991 RMK A01 T02440183  RH  069%=      5-min Rain = 0
KTH1 140629Z 14006KT 24/18 A2991 RMK A01 T02440184  RH  069%=      5-min Rain = 0
KTH1 140630Z 14006KT 24/18 A2991 RMK A01 T02440184  RH  069%=      5-min Rain = 0
KTH1 140631Z 14008KT 24/18 A2991 RMK A01 T02430184  RH  069%=      5-min Rain = 0
KTH1 140632Z 14007KT 24/18 A2991 RMK A01 T02440184  RH  069%=      5-min Rain = 0
KTH1 140633Z 14007KT 24/18 A2991 RMK A01 T02440183  RH  069%=      5-min Rain = 0
KTH1 140634Z 14005KT 24/18 A2991 RMK A01 T02440184  RH  069%=      5-min Rain = 0
KTH1 140635Z 14008KT 24/18 A2991 RMK A01 T02440184  RH  069%=      5-min Rain = 0
KTH1 140636Z 14006KT 24/18 A2991 RMK A01 T02440184  RH  069%=      5-min Rain = 0
KTH1 140637Z 14006KT 24/18 A2991 RMK A01 T02440183  RH  069%=      5-min Rain = 0
KTH1 140638Z 14008KT 24/18 A2991 RMK A01 T02440184  RH  069%=      5-min Rain = 0
KTH1 140639Z 14006KT 24/18 A2991 RMK A01 T02440184  RH  069%=      5-min Rain = 0
KTH1 140640Z 14008KT 25/18 A2992 RMK A01 T02450184  RH  069%=      5-min Rain = 0
KTH1 140641Z 14006KT 25/18 A2992 RMK A01 T02450184  RH  069%=      5-min Rain = 0
KTH1 140642Z 14007KT 24/18 A2992 RMK A01 T02440184  RH  069%=      5-min Rain = 0
KTH1 140643Z 14007KT 25/18 A2992 RMK A01 T02450184  RH  069%=      5-min Rain = 0
KTH1 140644Z 14008KT 25/18 A2992 RMK A01 T02450184  RH  069%=      5-min Rain = 0
KTH1 140645Z 14008KT 25/18 A2992 RMK A01 T02450184  RH  069%=      5-min Rain = 0
KTH1 140646Z 14007KT 25/18 A2992 RMK A01 T02450184  RH  069%=      5-min Rain = 0
KTH1 140647Z 13009KT 25/18 A2992 RMK A01 T02450184  RH  069%=      5-min Rain = 0
KTH1 140648Z 14006KT 25/18 A2991 RMK A01 T02450184  RH  069%=      5-min Rain = 0
KTH1 140649Z 14007KT 25/18 A2991 RMK A01 T02450184  RH  069%=      5-min Rain = 0
KTH1 140650Z 13006KT 25/18 A2991 RMK A01 T02450184  RH  069%=      5-min Rain = 0
KTH1 140651Z 14008KT 25/18 A2991 RMK A01 T02450184  RH  069%=      5-min Rain = 0
KTH1 140652Z 14007KT 25/19 A2991 RMK A01 T02450185  RH  069%=      5-min Rain = 0
KTH1 140653Z 14007KT 25/18 A2991 RMK A01 T02450184  RH  069%=      5-min Rain = 0
KTH1 140654Z 13007KT 25/19 A2991 RMK A01 T02450185  RH  069%=      5-min Rain = 0
KTH1 140655Z 13007KT 25/19 A2991 RMK A01 T02450185  RH  069%=      5-min Rain = 0
KTH1 140656Z 14007KT 24/19 A2991 RMK A01 T02440185  RH  069%=      5-min Rain = 0
KTH1 140657Z 14006KT 25/19 A2991 RMK A01 T02450185  RH  069%=      5-min Rain = 0
KTH1 140658Z 14007KT 24/19 A2991 RMK A01 T02440185  RH  070%=      5-min Rain = 0
KTH1 140659Z 14008KT 24/19 A2991 RMK A01 T02440185  RH  069%=      5-min Rain = 0
KTH1 140700Z 14008KT 24/19 A2991 RMK A01 T02440185  RH  070%=      5-min Rain = 0
KTH1 140701Z 13007KT 24/19 A2991 RMK A01 T02440185  RH  070%=      5-min Rain = 0
KTH1 140702Z 13007KT 24/19 A2991 RMK A01 T02440185  RH  070%=      5-min Rain = 0
KTH1 140703Z 13006KT 24/19 A2991 RMK A01 T02440185  RH  070%=      5-min Rain = 0
KTH1 140704Z 14005KT 24/19 A2991 RMK A01 T02440185  RH  070%=      5-min Rain = 0
KTH1 140705Z 13007KT 24/19 A2991 RMK A01 T02430185  RH  070%=      5-min Rain = 0
KTH1 140706Z 13006KT 24/19 A2991 RMK A01 T02430185  RH  070%=      5-min Rain = 0
KTH1 140707Z 13007KT 24/19 A2991 RMK A01 T02430185  RH  070%=      5-min Rain = 0
KTH1 140708Z 14005KT 24/18 A2991 RMK A01 T02430184  RH  070%=      5-min Rain = 0
KTH1 140709Z 14006KT 24/19 A2991 RMK A01 T02430185  RH  070%=      5-min Rain = 0
KTH1 140710Z 13007KT 24/19 A2991 RMK A01 T02430185  RH  070%=      5-min Rain = 0
KTH1 140711Z 13007KT 24/19 A2991 RMK A01 T02430185  RH  070%=      5-min Rain = 0
KTH1 140712Z 13006KT 24/18 A2991 RMK A01 T02430184  RH  070%=      5-min Rain = 0
KTH1 140713Z 13006KT 24/18 A2991 RMK A01 T02430184  RH  070%=      5-min Rain = 0
KTH1 140714Z 13006KT 24/18 A2991 RMK A01 T02420184  RH  070%=      5-min Rain = 0
KTH1 140715Z 13006KT 24/18 A2991 RMK A01 T02420184  RH  070%=      5-min Rain = 0
KTH1 140716Z 13005KT 24/19 A2991 RMK A01 T02420185  RH  070%=      5-min Rain = 0
KTH1 140717Z 13006KT 24/19 A2991 RMK A01 T02420185  RH  070%=      5-min Rain = 0
KTH1 140718Z 12005KT 24/19 A2991 RMK A01 T02410185  RH  071%=      5-min Rain = 0
KTH1 140719Z 13005KT 24/19 A2991 RMK A01 T02410185  RH  071%=      5-min Rain = 0
KTH1 140720Z 13006KT 24/19 A2991 RMK A01 T02410185  RH  071%=      5-min Rain = 0
KTH1 140721Z 13006KT 24/18 A2991 RMK A01 T02410184  RH  071%=      5-min Rain = 0
KTH1 140722Z 13006KT 24/18 A2991 RMK A01 T02400184  RH  071%=      5-min Rain = 0
KTH1 140723Z 13007KT 24/18 A2991 RMK A01 T02400184  RH  071%=      5-min Rain = 0
KTH1 140724Z 13006KT 24/18 A2991 RMK A01 T02400184  RH  071%=      5-min Rain = 0
KTH1 140725Z 13007KT 24/19 A2991 RMK A01 T02400185  RH  071%=      5-min Rain = 0
KTH1 140726Z 13007KT 24/18 A2991 RMK A01 T02400184  RH  071%=      5-min Rain = 0
KTH1 140727Z 13007KT 24/18 A2991 RMK A01 T02400184  RH  071%=      5-min Rain = 0
KTH1 140728Z 13006KT 24/18 A2991 RMK A01 T02400184  RH  071%=      5-min Rain = 0
KTH1 140729Z 12006KT 24/18 A2991 RMK A01 T02400184  RH  071%=      5-min Rain = 0
KTH1 140730Z 12006KT 24/19 A2991 RMK A01 T02410185  RH  071%=      5-min Rain = 0
KTH1 140731Z 12005KT 24/18 A2991 RMK A01 T02400184  RH  071%=      5-min Rain = 0
KTH1 140732Z 12006KT 24/18 A2991 RMK A01 T02400184  RH  071%=      5-min Rain = 0
KTH1 140733Z 12006KT 24/18 A2991 RMK A01 T02400184  RH  071%=      5-min Rain = 0
KTH1 140734Z 12006KT 24/18 A2991 RMK A01 T02400184  RH  071%=      5-min Rain = 0
KTH1 140735Z 12004KT 24/18 A2991 RMK A01 T02400184  RH  071%=      5-min Rain = 0
KTH1 140736Z 12006KT 24/19 A2991 RMK A01 T02400185  RH  071%=      5-min Rain = 0
KTH1 140737Z 11005KT 24/19 A2992 RMK A01 T02400185  RH  071%=      5-min Rain = 0
KTH1 140738Z 12005KT 24/19 A2992 RMK A01 T02400185  RH  071%=      5-min Rain = 0
KTH1 140739Z 12005KT 24/19 A2992 RMK A01 T02400185  RH  071%=      5-min Rain = 0
KTH1 140740Z 12005KT 24/19 A2992 RMK A01 T02400185  RH  071%=      5-min Rain = 0
KTH1 140741Z 12005KT 24/19 A2992 RMK A01 T02400185  RH  071%=      5-min Rain = 0
KTH1 140742Z 12005KT 24/19 A2992 RMK A01 T02400185  RH  071%=      5-min Rain = 0
KTH1 140743Z 12005KT 24/19 A2992 RMK A01 T02400185  RH  071%=      5-min Rain = 0
KTH1 140744Z 12005KT 24/19 A2992 RMK A01 T02400185  RH  071%=      5-min Rain = 0
KTH1 140745Z 12006KT 24/19 A2992 RMK A01 T02400185  RH  071%=      5-min Rain = 0
KTH1 140746Z 12005KT 24/19 A2992 RMK A01 T02400185  RH  071%=      5-min Rain = 0
KTH1 140747Z 12005KT 24/18 A2992 RMK A01 T02390184  RH  071%=      5-min Rain = 0
KTH1 140748Z 12006KT 24/19 A2992 RMK A01 T02390185  RH  071%=      5-min Rain = 0
KTH1 140749Z 13006KT 24/19 A2992 RMK A01 T02400185  RH  071%=      5-min Rain = 0
KTH1 140750Z 13005KT 24/19 A2992 RMK A01 T02390185  RH  071%=      5-min Rain = 0
KTH1 140751Z 12005KT 24/19 A2992 RMK A01 T02390185  RH  072%=      5-min Rain = 0
KTH1 140752Z 13005KT 24/19 A2992 RMK A01 T02390185  RH  072%=      5-min Rain = 0
KTH1 140753Z 13005KT 24/19 A2992 RMK A01 T02390185  RH  072%=      5-min Rain = 0
KTH1 140754Z 12005KT 24/19 A2992 RMK A01 T02380185  RH  072%=      5-min Rain = 0
KTH1 140755Z 12005KT 24/19 A2992 RMK A01 T02390185  RH  072%=      5-min Rain = 0
KTH1 140756Z 12006KT 24/19 A2992 RMK A01 T02390185  RH  072%=      5-min Rain = 0
KTH1 140757Z 12006KT 24/19 A2992 RMK A01 T02390185  RH  072%=      5-min Rain = 0
KTH1 140758Z 12005KT 24/19 A2992 RMK A01 T02380185  RH  072%=      5-min Rain = 0
KTH1 140759Z 12006KT 24/19 A2992 RMK A01 T02390185  RH  072%=      5-min Rain = 0
KTH1 140800Z 13006KT 24/19 A2992 RMK A01 T02380185  RH  072%=      5-min Rain = 0
KTH1 140801Z 13006KT 24/19 A2992 RMK A01 T02390185  RH  072%=      5-min Rain = 0
KTH1 140802Z 13006KT 24/19 A2992 RMK A01 T02380185  RH  072%=      5-min Rain = 0
KTH1 140803Z 13006KT 24/19 A2992 RMK A01 T02390185  RH  072%=      5-min Rain = 0
KTH1 140804Z 13006KT 24/19 A2992 RMK A01 T02390185  RH  072%=      5-min Rain = 0
KTH1 140805Z 13006KT 24/19 A2992 RMK A01 T02380186  RH  072%=      5-min Rain = 0
KTH1 140806Z 13006KT 24/19 A2992 RMK A01 T02380185  RH  072%=      5-min Rain = 0
KTH1 140807Z 13006KT 24/19 A2992 RMK A01 T02380186  RH  072%=      5-min Rain = 0
KTH1 140808Z 13006KT 24/19 A2992 RMK A01 T02380185  RH  072%=      5-min Rain = 0
KTH1 140809Z 12006KT 24/19 A2992 RMK A01 T02380186  RH  073%=      5-min Rain = 0
KTH1 140810Z 13006KT 24/19 A2992 RMK A01 T02380186  RH  073%=      5-min Rain = 0
KTH1 140811Z 13006KT 24/19 A2992 RMK A01 T02370186  RH  073%=      5-min Rain = 0
KTH1 140812Z 13005KT 24/19 A2992 RMK A01 T02370186  RH  073%=      5-min Rain = 0
KTH1 140813Z 13005KT 24/19 A2992 RMK A01 T02370186  RH  073%=      5-min Rain = 0
KTH1 140814Z 13006KT 24/19 A2992 RMK A01 T02370186  RH  073%=      5-min Rain = 0
KTH1 140815Z 13007KT 24/19 A2992 RMK A01 T02370186  RH  073%=      5-min Rain = 0
KTH1 140816Z 13007KT 24/19 A2992 RMK A01 T02370187  RH  073%=      5-min Rain = 0
KTH1 140817Z 13008KT 24/19 A2992 RMK A01 T02370186  RH  073%=      5-min Rain = 0
KTH1 140818Z 13007KT 24/19 A2992 RMK A01 T02370186  RH  073%=      5-min Rain = 0
KTH1 140819Z 13007KT 24/19 A2992 RMK A01 T02370187  RH  073%=      5-min Rain = 0
KTH1 140820Z 13007KT 24/19 A2992 RMK A01 T02370187  RH  073%=      5-min Rain = 0
KTH1 140821Z 13006KT 24/19 A2992 RMK A01 T02370186  RH  073%=      5-min Rain = 0
KTH1 140822Z 13006KT 24/19 A2992 RMK A01 T02370187  RH  073%=      5-min Rain = 0
KTH1 140823Z 13006KT 24/19 A2992 RMK A01 T02370187  RH  073%=      5-min Rain = 0
KTH1 140824Z 12006KT 24/19 A2992 RMK A01 T02370187  RH  073%=      5-min Rain = 0
KTH1 140825Z 13005KT 24/19 A2992 RMK A01 T02370187  RH  073%=      5-min Rain = 0
KTH1 140826Z 12006KT 24/19 A2992 RMK A01 T02370187  RH  073%=      5-min Rain = 0
KTH1 140827Z 12006KT 24/19 A2992 RMK A01 T02370187  RH  073%=      5-min Rain = 0
KTH1 140828Z 12006KT 24/19 A2992 RMK A01 T02370187  RH  073%=      5-min Rain = 0
KTH1 140829Z 12005KT 24/19 A2992 RMK A01 T02370187  RH  073%=      5-min Rain = 0
KTH1 140830Z 12006KT 24/19 A2992 RMK A01 T02370187  RH  073%=      5-min Rain = 0
KTH1 140831Z 13006KT 24/19 A2992 RMK A01 T02370187  RH  073%=      5-min Rain = 0
KTH1 140832Z 12006KT 24/19 A2992 RMK A01 T02370187  RH  073%=      5-min Rain = 0
KTH1 140833Z 12004KT 24/19 A2992 RMK A01 T02370187  RH  073%=      5-min Rain = 0
KTH1 140834Z 12006KT 24/19 A2992 RMK A01 T02370187  RH  074%=      5-min Rain = 0
KTH1 140835Z 12005KT 24/19 A2992 RMK A01 T02370187  RH  074%=      5-min Rain = 0
KTH1 140836Z 10005KT 24/19 A2992 RMK A01 T02370187  RH  074%=      5-min Rain = 0
KTH1 140837Z 11004KT 24/19 A2992 RMK A01 T02370188  RH  074%=      5-min Rain = 0
KTH1 140838Z 11005KT 24/19 A2992 RMK A01 T02360187  RH  074%=      5-min Rain = 0
KTH1 140839Z 12006KT 24/19 A2992 RMK A01 T02370188  RH  074%=      5-min Rain = 0
KTH1 140840Z 12006KT 24/19 A2992 RMK A01 T02360188  RH  074%=      5-min Rain = 0
KTH1 140841Z 12006KT 24/19 A2992 RMK A01 T02360187  RH  074%=      5-min Rain = 0
KTH1 140842Z 12006KT 24/19 A2992 RMK A01 T02360188  RH  074%=      5-min Rain = 0
KTH1 140843Z 12006KT 24/19 A2992 RMK A01 T02360188  RH  074%=      5-min Rain = 0
KTH1 140844Z 12007KT 24/19 A2992 RMK A01 T02360188  RH  074%=      5-min Rain = 0
KTH1 140845Z 12006KT 24/19 A2992 RMK A01 T02360188  RH  074%=      5-min Rain = 0
KTH1 140846Z 13005KT 24/19 A2992 RMK A01 T02360188  RH  074%=      5-min Rain = 0
KTH1 140847Z 13006KT 24/19 A2992 RMK A01 T02360188  RH  075%=      5-min Rain = 0
KTH1 140848Z 13006KT 24/19 A2992 RMK A01 T02350188  RH  075%=      5-min Rain = 0
KTH1 140849Z 13006KT 24/19 A2992 RMK A01 T02350189  RH  075%=      5-min Rain = 0
KTH1 140850Z 13006KT 24/19 A2992 RMK A01 T02350189  RH  075%=      5-min Rain = 0
KTH1 140851Z 13006KT 23/19 A2992 RMK A01 T02340189  RH  075%=      5-min Rain = 0
KTH1 140852Z 13005KT 23/19 A2992 RMK A01 T02340188  RH  076%=      5-min Rain = 0
KTH1 140853Z 13006KT 23/19 A2992 RMK A01 T02340189  RH  076%=      5-min Rain = 0
KTH1 140854Z 13006KT 23/19 A2992 RMK A01 T02340189  RH  076%=      5-min Rain = 0
KTH1 140855Z 14005KT 23/19 A2992 RMK A01 T02340188  RH  076%=      5-min Rain = 0
KTH1 140856Z 13005KT 23/19 A2992 RMK A01 T02340189  RH  076%=      5-min Rain = 0
KTH1 140857Z 13006KT 23/19 A2992 RMK A01 T02340189  RH  076%=      5-min Rain = 0
KTH1 140858Z 13006KT 23/19 A2992 RMK A01 T02340189  RH  076%=      5-min Rain = 0
KTH1 140859Z 13005KT 23/19 A2992 RMK A01 T02340189  RH  076%=      5-min Rain = 0
KTH1 140900Z 13005KT 23/19 A2992 RMK A01 T02340189  RH  076%=      5-min Rain = 0
KTH1 140901Z 13006KT 23/19 A2992 RMK A01 T02340189  RH  076%=      5-min Rain = 0
KTH1 140902Z 13005KT 23/19 A2992 RMK A01 T02340189  RH  076%=      5-min Rain = 0
KTH1 140903Z 14006KT 23/19 A2992 RMK A01 T02340189  RH  076%=      5-min Rain = 0
KTH1 140904Z 13007KT 23/19 A2992 RMK A01 T02340189  RH  076%=      5-min Rain = 0
KTH1 140905Z 13007KT 23/19 A2992 RMK A01 T02340189  RH  076%=      5-min Rain = 0
KTH1 140906Z 13005KT 23/19 A2992 RMK A01 T02340189  RH  076%=      5-min Rain = 0
KTH1 140907Z 13007KT 24/19 A2992 RMK A01 T02350190  RH  076%=      5-min Rain = 0
KTH1 140908Z 13006KT 24/19 A2992 RMK A01 T02350190  RH  076%=      5-min Rain = 0
KTH1 140909Z 14006KT 24/19 A2992 RMK A01 T02350190  RH  076%=      5-min Rain = 0
KTH1 140910Z 14006KT 24/19 A2992 RMK A01 T02350190  RH  076%=      5-min Rain = 0
KTH1 140911Z 13007KT 24/19 A2992 RMK A01 T02360190  RH  076%=      5-min Rain = 0
KTH1 140912Z 14005KT 24/19 A2992 RMK A01 T02350190  RH  076%=      5-min Rain = 0
KTH1 140913Z 14008KT 24/19 A2992 RMK A01 T02350190  RH  076%=      5-min Rain = 0
KTH1 140914Z 14007KT 24/19 A2992 RMK A01 T02350190  RH  076%=      5-min Rain = 0
KTH1 140915Z 13007KT 24/19 A2992 RMK A01 T02360190  RH  075%=      5-min Rain = 0
KTH1 140916Z 14007KT 24/19 A2992 RMK A01 T02360190  RH  075%=      5-min Rain = 0
KTH1 140917Z 14005KT 24/19 A2992 RMK A01 T02370190  RH  075%=      5-min Rain = 0
KTH1 140918Z 14007KT 24/19 A2992 RMK A01 T02370190  RH  075%=      5-min Rain = 0
KTH1 140919Z 14007KT 24/19 A2992 RMK A01 T02370191  RH  075%=      5-min Rain = 0
KTH1 140920Z 14005KT 24/19 A2992 RMK A01 T02370191  RH  075%=      5-min Rain = 0
KTH1 140921Z 14006KT 24/19 A2992 RMK A01 T02370191  RH  076%=      5-min Rain = 0
KTH1 140922Z 14006KT 24/19 A2992 RMK A01 T02360191  RH  076%=      5-min Rain = 0
KTH1 140923Z 14006KT 24/19 A2992 RMK A01 T02360191  RH  076%=      5-min Rain = 0
KTH1 140924Z 15007KT 24/19 A2992 RMK A01 T02360191  RH  076%=      5-min Rain = 0
KTH1 140925Z 14007KT 24/19 A2993 RMK A01 T02360191  RH  076%=      5-min Rain = 0
KTH1 140926Z 15006KT 24/19 A2993 RMK A01 T02360191  RH  076%=      5-min Rain = 0
KTH1 140927Z 14006KT 24/19 A2993 RMK A01 T02360191  RH  076%=      5-min Rain = 0
KTH1 140928Z 15007KT 24/19 A2993 RMK A01 T02370191  RH  075%=      5-min Rain = 0
KTH1 140929Z 15006KT 24/19 A2993 RMK A01 T02370191  RH  075%=      5-min Rain = 0
KTH1 140930Z 14005KT 24/19 A2993 RMK A01 T02370191  RH  075%=      5-min Rain = 0
KTH1 140931Z 15007KT 24/19 A2992 RMK A01 T02370191  RH  076%=      5-min Rain = 0
KTH1 140932Z 15004KT 24/19 A2992 RMK A01 T02370191  RH  076%=      5-min Rain = 0
KTH1 140933Z 14005KT 24/19 A2992 RMK A01 T02370192  RH  076%=      5-min Rain = 0
KTH1 140934Z 15007KT 24/19 A2992 RMK A01 T02360191  RH  076%=      5-min Rain = 0
KTH1 140935Z 14007KT 24/19 A2992 RMK A01 T02360191  RH  076%=      5-min Rain = 0
KTH1 140936Z 14007KT 24/19 A2992 RMK A01 T02360191  RH  076%=      5-min Rain = 0
KTH1 140937Z 15006KT 24/19 A2992 RMK A01 T02370191  RH  076%=      5-min Rain = 0
KTH1 140938Z 15008KT 24/19 A2992 RMK A01 T02370192  RH  076%=      5-min Rain = 0
KTH1 140939Z 15007KT 24/19 A2992 RMK A01 T02370191  RH  076%=      5-min Rain = 0
KTH1 140940Z 14005KT 24/19 A2993 RMK A01 T02370191  RH  076%=      5-min Rain = 0
KTH1 140941Z 14007KT 24/19 A2993 RMK A01 T02370192  RH  076%=      5-min Rain = 0
KTH1 140942Z 15006KT 24/19 A2993 RMK A01 T02370192  RH  076%=      5-min Rain = 0
KTH1 140943Z 14005KT 24/19 A2993 RMK A01 T02370192  RH  076%=      5-min Rain = 0
KTH1 140944Z 14007KT 24/19 A2993 RMK A01 T02360192  RH  076%=      5-min Rain = 0
KTH1 140945Z 15007G12KT 24/19 A2993 RMK A01 T02360192  RH  076%=      5-min Rain = 0
KTH1 140946Z 15009KT 24/19 A2993 RMK A01 T02360192  RH  076%=      5-min Rain = 0
KTH1 140947Z 15008KT 24/19 A2993 RMK A01 T02360192  RH  076%=      5-min Rain = 0
KTH1 140948Z 15008KT 24/19 A2993 RMK A01 T02370192  RH  076%=      5-min Rain = 0
KTH1 140949Z 15008KT 24/19 A2993 RMK A01 T02370192  RH  076%=      5-min Rain = 0
KTH1 140950Z 15006KT 24/19 A2993 RMK A01 T02370192  RH  076%=      5-min Rain = 0
KTH1 140951Z 15008KT 24/19 A2993 RMK A01 T02370192  RH  076%=      5-min Rain = 0
KTH1 140952Z 15008KT 24/19 A2993 RMK A01 T02370192  RH  076%=      5-min Rain = 0
KTH1 140953Z 14008KT 24/19 A2993 RMK A01 T02370192  RH  076%=      5-min Rain = 0
KTH1 140954Z 15007KT 24/19 A2993 RMK A01 T02370192  RH  076%=      5-min Rain = 0
KTH1 140955Z 15006KT 24/19 A2993 RMK A01 T02370192  RH  076%=      5-min Rain = 0
KTH1 140956Z 15008KT 24/19 A2993 RMK A01 T02370192  RH  076%=      5-min Rain = 0
KTH1 140957Z 15008KT 24/19 A2993 RMK A01 T02370192  RH  076%=      5-min Rain = 0
KTH1 140958Z 15007KT 24/19 A2993 RMK A01 T02370192  RH  076%=      5-min Rain = 0
KTH1 140959Z 15006KT 24/19 A2993 RMK A01 T02370192  RH  076%=      5-min Rain = 0
KTH1 141000Z 15006KT 24/19 A2993 RMK A01 T02370193  RH  076%=      5-min Rain = 0
KTH1 141001Z 14006KT 24/19 A2993 RMK A01 T02370193  RH  076%=      5-min Rain = 0
KTH1 141002Z 15007KT 24/19 A2993 RMK A01 T02370193  RH  076%=      5-min Rain = 0
KTH1 141003Z 15007KT 24/19 A2993 RMK A01 T02360193  RH  076%=      5-min Rain = 0
KTH1 141004Z 15006KT 24/19 A2993 RMK A01 T02370193  RH  076%=      5-min Rain = 0
KTH1 141005Z 15006G11KT 24/19 A2992 RMK A01 T02370193  RH  076%=      5-min Rain = 0
KTH1 141006Z 15009KT 24/19 A2992 RMK A01 T02370193  RH  076%=      5-min Rain = 0
KTH1 141007Z 15009KT 24/19 A2992 RMK A01 T02370193  RH  076%=      5-min Rain = 0
KTH1 141008Z 15007KT 24/19 A2992 RMK A01 T02370193  RH  076%=      5-min Rain = 0
KTH1 141009Z 15008KT 24/19 A2992 RMK A01 T02370193  RH  076%=      5-min Rain = 0
KTH1 141010Z 15007KT 24/19 A2993 RMK A01 T02370193  RH  076%=      5-min Rain = 0
KTH1 141011Z 15007KT 24/19 A2993 RMK A01 T02370193  RH  076%=      5-min Rain = 0
KTH1 141012Z 15007KT 24/19 A2993 RMK A01 T02370193  RH  076%=      5-min Rain = 0
KTH1 141013Z 15008KT 24/19 A2993 RMK A01 T02370193  RH  076%=      5-min Rain = 0
KTH1 141014Z 15008KT 24/19 A2993 RMK A01 T02370193  RH  076%=      5-min Rain = 0
KTH1 141015Z 15007KT 24/19 A2993 RMK A01 T02370193  RH  076%=      5-min Rain = 0
KTH1 141016Z 15008KT 24/19 A2993 RMK A01 T02360193  RH  077%=      5-min Rain = 0
KTH1 141017Z 16008KT 24/19 A2993 RMK A01 T02360193  RH  077%=      5-min Rain = 0
KTH1 141018Z 15006KT 24/19 A2993 RMK A01 T02360193  RH  077%=      5-min Rain = 0
KTH1 141019Z 15008KT 24/19 A2993 RMK A01 T02360193  RH  077%=      5-min Rain = 0
KTH1 141020Z 15007KT 24/19 A2993 RMK A01 T02360193  RH  077%=      5-min Rain = 0
KTH1 141021Z 15006KT 24/19 A2993 RMK A01 T02360193  RH  077%=      5-min Rain = 0
KTH1 141022Z 15010KT 24/19 A2993 RMK A01 T02360193  RH  077%=      5-min Rain = 0
KTH1 141023Z 15008KT 24/19 A2993 RMK A01 T02360193  RH  077%=      5-min Rain = 0
KTH1 141024Z 15007KT 24/19 A2993 RMK A01 T02360193  RH  077%=      5-min Rain = 0
KTH1 141025Z 16006KT 24/19 A2993 RMK A01 T02360193  RH  077%=      5-min Rain = 0
KTH1 141026Z 15008G13KT 24/19 A2993 RMK A01 T02360193  RH  077%=      5-min Rain = 0
KTH1 141027Z 16007KT 24/19 A2993 RMK A01 T02360193  RH  077%=      5-min Rain = 0
KTH1 141028Z 16008KT 24/19 A2993 RMK A01 T02360193  RH  077%=      5-min Rain = 0
KTH1 141029Z 16008KT 24/19 A2993 RMK A01 T02360193  RH  077%=      5-min Rain = 0
KTH1 141030Z 16009KT 24/19 A2993 RMK A01 T02360193  RH  077%=      5-min Rain = 0
KTH1 141031Z 16008KT 24/19 A2993 RMK A01 T02360193  RH  077%=      5-min Rain = 0
KTH1 141032Z 15009KT 24/19 A2993 RMK A01 T02360193  RH  077%=      5-min Rain = 0
KTH1 141033Z 15006KT 24/19 A2993 RMK A01 T02360193  RH  077%=      5-min Rain = 0
KTH1 141034Z 16008KT 24/19 A2993 RMK A01 T02360193  RH  077%=      5-min Rain = 0
KTH1 141035Z 16006KT 24/19 A2993 RMK A01 T02360193  RH  077%=      5-min Rain = 0
KTH1 141036Z 16008KT 24/19 A2993 RMK A01 T02350193  RH  077%=      5-min Rain = 0
KTH1 141037Z 16008KT 24/19 A2993 RMK A01 T02350193  RH  077%=      5-min Rain = 0
KTH1 141038Z 15007KT 24/19 A2993 RMK A01 T02360193  RH  077%=      5-min Rain = 0
KTH1 141039Z 16006G11KT 24/19 A2993 RMK A01 T02350193  RH  077%=      5-min Rain = 0
KTH1 141040Z 16007KT 24/19 A2993 RMK A01 T02350193  RH  077%=      5-min Rain = 0
KTH1 141041Z 16007KT 24/19 A2993 RMK A01 T02350193  RH  077%=      5-min Rain = 0
KTH1 141042Z 16007KT 24/19 A2993 RMK A01 T02350194  RH  077%=      5-min Rain = 0
KTH1 141043Z 16008KT 24/19 A2993 RMK A01 T02350194  RH  077%=      5-min Rain = 0
KTH1 141044Z 15006KT 24/19 A2993 RMK A01 T02350194  RH  078%=      5-min Rain = 0
KTH1 141045Z 15006KT 24/19 A2993 RMK A01 T02350194  RH  078%=      5-min Rain = 0
KTH1 141046Z 15007KT 24/19 A2993 RMK A01 T02350194  RH  078%=      5-min Rain = 0
KTH1 141047Z 15008KT 24/19 A2993 RMK A01 T02350194  RH  078%=      5-min Rain = 0
KTH1 141048Z 15008KT 24/19 A2993 RMK A01 T02350194  RH  078%=      5-min Rain = 0
KTH1 141049Z 15008KT 24/19 A2993 RMK A01 T02350194  RH  078%=      5-min Rain = 0
KTH1 141050Z 15007KT 24/19 A2993 RMK A01 T02350193  RH  077%=      5-min Rain = 0
KTH1 141051Z 15005KT 24/19 A2993 RMK A01 T02350193  RH  078%=      5-min Rain = 0
KTH1 141052Z 15006G12KT 24/19 A2993 RMK A01 T02350194  RH  078%=      5-min Rain = 0
KTH1 141053Z 15008KT 24/19 A2993 RMK A01 T02350194  RH  078%=      5-min Rain = 0
KTH1 141054Z 15008KT 24/19 A2993 RMK A01 T02350194  RH  078%=      5-min Rain = 0
KTH1 141055Z 15007KT 24/19 A2993 RMK A01 T02350194  RH  078%=      5-min Rain = 0
KTH1 141056Z 15008KT 24/19 A2993 RMK A01 T02350194  RH  078%=      5-min Rain = 0
KTH1 141057Z 15008KT 24/19 A2993 RMK A01 T02350194  RH  078%=      5-min Rain = 0
KTH1 141058Z 14006KT 23/19 A2993 RMK A01 T02340194  RH  078%=      5-min Rain = 0
KTH1 141059Z 15009KT 23/19 A2993 RMK A01 T02340194  RH  078%=      5-min Rain = 0
KTH1 141100Z 15008KT 23/19 A2993 RMK A01 T02340194  RH  078%=      5-min Rain = 0
KTH1 141101Z 15007KT 23/19 A2993 RMK A01 T02340194  RH  078%=      5-min Rain = 0
KTH1 141102Z 16007KT 23/19 A2993 RMK A01 T02330194  RH  079%=      5-min Rain = 0
KTH1 141103Z 14007KT 23/20 A2993 RMK A01 T02330195  RH  079%=      5-min Rain = 0
KTH1 141104Z 14008KT 23/20 A2993 RMK A01 T02330195  RH  079%=      5-min Rain = 0
KTH1 141105Z 14008KT 23/20 A2993 RMK A01 T02330195  RH  079%=      5-min Rain = 0
KTH1 141106Z 14007KT 23/20 A2993 RMK A01 T02320195  RH  080%=      5-min Rain = 0
KTH1 141107Z 15007KT 23/20 A2993 RMK A01 T02320196  RH  080%=      5-min Rain = 0
KTH1 141108Z 15007KT 23/20 A2993 RMK A01 T02310196  RH  081%=      5-min Rain = 0
KTH1 141109Z 15005KT 23/20 A2993 RMK A01 T02310197  RH  081%=      5-min Rain = 0
KTH1 141110Z 15004KT 23/20 A2993 RMK A01 T02290197  RH  082%=      5-min Rain = 0
KTH1 141111Z 15005KT 23/20 A2993 RMK A01 T02290197  RH  082%=      5-min Rain = 0
KTH1 141112Z 15006KT 23/20 A2993 RMK A01 T02280197  RH  083%=      5-min Rain = 0
KTH1 141113Z 15005KT 23/20 A2993 RMK A01 T02270197  RH  083%=      5-min Rain = 0
KTH1 141114Z 15006KT 23/20 A2994 RMK A01 T02270197  RH  083%=      5-min Rain = 0
KTH1 141115Z 15005KT 23/20 A2994 RMK A01 T02260197  RH  083%=      5-min Rain = 0
KTH1 141116Z 15006KT 23/20 A2994 RMK A01 T02260197  RH  084%=      5-min Rain = 0
KTH1 141117Z 15007KT 23/20 A2994 RMK A01 T02250196  RH  084%=      5-min Rain = 0
KTH1 141118Z 15005KT 23/20 A2994 RMK A01 T02250196  RH  084%=      5-min Rain = 0
KTH1 141119Z 15006KT 23/20 A2994 RMK A01 T02250196  RH  084%=      5-min Rain = 0
KTH1 141120Z 14006KT 23/20 A2994 RMK A01 T02250196  RH  084%=      5-min Rain = 0
KTH1 141121Z 14006KT 22/20 A2994 RMK A01 T02240196  RH  084%=      5-min Rain = 0
KTH1 141122Z 15006KT 22/20 A2994 RMK A01 T02240196  RH  084%=      5-min Rain = 0
KTH1 141123Z 15006KT 22/20 A2994 RMK A01 T02240195  RH  084%=      5-min Rain = 0
KTH1 141124Z 16006KT 22/20 A2994 RMK A01 T02240196  RH  084%=      5-min Rain = 0
KTH1 141125Z 15006KT 22/20 A2994 RMK A01 T02240196  RH  084%=      5-min Rain = 0
KTH1 141126Z 15006KT 22/20 A2994 RMK A01 T02240196  RH  084%=      5-min Rain = 0
KTH1 141127Z 15007KT 22/20 A2994 RMK A01 T02240195  RH  084%=      5-min Rain = 0
KTH1 141128Z 15006KT 22/20 A2994 RMK A01 T02240195  RH  084%=      5-min Rain = 0
KTH1 141129Z 15006KT 22/20 A2994 RMK A01 T02240195  RH  084%=      5-min Rain = 0
KTH1 141130Z 14005KT 22/20 A2994 RMK A01 T02230195  RH  084%=      5-min Rain = 0
KTH1 141131Z 15004KT 22/20 A2994 RMK A01 T02230195  RH  084%=      5-min Rain = 0
KTH1 141132Z 15007KT 22/20 A2994 RMK A01 T02230195  RH  084%=      5-min Rain = 0
KTH1 141133Z 15006KT 22/20 A2994 RMK A01 T02230195  RH  084%=      5-min Rain = 0
KTH1 141134Z 15007KT 22/20 A2994 RMK A01 T02230195  RH  084%=      5-min Rain = 0
KTH1 141135Z 15006KT 22/20 A2994 RMK A01 T02230195  RH  084%=      5-min Rain = 0
KTH1 141136Z 15005KT 22/20 A2994 RMK A01 T02230195  RH  084%=      5-min Rain = 0
KTH1 141137Z 15006KT 22/20 A2994 RMK A01 T02230195  RH  084%=      5-min Rain = 0
KTH1 141138Z 14007KT 22/20 A2994 RMK A01 T02230195  RH  084%=      5-min Rain = 0
KTH1 141139Z 15006KT 22/20 A2994 RMK A01 T02230195  RH  084%=      5-min Rain = 0
KTH1 141140Z 14008KT 22/20 A2994 RMK A01 T02230195  RH  084%=      5-min Rain = 0
KTH1 141141Z 15007KT 22/20 A2994 RMK A01 T02230195  RH  084%=      5-min Rain = 0
KTH1 141142Z 15007KT 22/19 A2994 RMK A01 T02230194  RH  084%=      5-min Rain = 0
KTH1 141143Z 15007KT 22/19 A2994 RMK A01 T02230194  RH  084%=      5-min Rain = 0
KTH1 141144Z 15009KT 22/19 A2994 RMK A01 T02230194  RH  084%=      5-min Rain = 0
KTH1 141145Z 14008KT 22/19 A2994 RMK A01 T02230194  RH  084%=      5-min Rain = 0
KTH1 141146Z 15008KT 22/20 A2994 RMK A01 T02240195  RH  083%=      5-min Rain = 0
KTH1 141147Z 15007KT 22/19 A2994 RMK A01 T02240194  RH  083%=      5-min Rain = 0
KTH1 141148Z 14006KT 22/20 A2994 RMK A01 T02240195  RH  084%=      5-min Rain = 0
KTH1 141149Z 15006KT 22/20 A2995 RMK A01 T02240195  RH  084%=      5-min Rain = 0
KTH1 141150Z 15007KT 22/20 A2995 RMK A01 T02230195  RH  084%=      5-min Rain = 0
KTH1 141151Z 15007KT 22/20 A2995 RMK A01 T02230195  RH  084%=      5-min Rain = 0
KTH1 141152Z 15006KT 22/20 A2995 RMK A01 T02230195  RH  084%=      5-min Rain = 0
KTH1 141153Z 15006KT 22/20 A2995 RMK A01 T02230195  RH  084%=      5-min Rain = 0
KTH1 141154Z 14005KT 22/20 A2995 RMK A01 T02230195  RH  084%=      5-min Rain = 0
KTH1 141155Z 14005KT 22/20 A2995 RMK A01 T02230195  RH  084%=      5-min Rain = 0
KTH1 141156Z 14006KT 22/20 A2995 RMK A01 T02230195  RH  084%=      5-min Rain = 0
KTH1 141157Z 15005KT 22/20 A2995 RMK A01 T02230195  RH  084%=      5-min Rain = 0
KTH1 141158Z 14006KT 22/20 A2995 RMK A01 T02230195  RH  084%=      5-min Rain = 0
KTH1 141159Z 14007KT 22/20 A2995 RMK A01 T02230195  RH  084%=      5-min Rain = 0
KTH1 141200Z 14006KT 22/20 A2995 RMK A01 T02230195  RH  084%=      5-min Rain = 0
KTH1 141201Z 15007KT 22/20 A2995 RMK A01 T02230195  RH  084%=      5-min Rain = 0
KTH1 141202Z 14006KT 22/20 A2995 RMK A01 T02230195  RH  084%=      5-min Rain = 0
KTH1 141203Z 14006KT 22/20 A2995 RMK A01 T02230195  RH  084%=      5-min Rain = 0
KTH1 141204Z 14007KT 22/20 A2995 RMK A01 T02230195  RH  084%=      5-min Rain = 0
KTH1 141205Z 15006KT 22/20 A2995 RMK A01 T02230195  RH  084%=      5-min Rain = 0
KTH1 141206Z 15005KT 22/20 A2995 RMK A01 T02230196  RH  084%=      5-min Rain = 0
KTH1 141207Z 15006KT 22/20 A2995 RMK A01 T02230195  RH  084%=      5-min Rain = 0
KTH1 141208Z 15005KT 22/20 A2995 RMK A01 T02220195  RH  085%=      5-min Rain = 0
KTH1 141209Z 15004KT 22/20 A2995 RMK A01 T02220195  RH  085%=      5-min Rain = 0
KTH1 141210Z 15006KT 22/20 A2995 RMK A01 T02230196  RH  085%=      5-min Rain = 0
KTH1 141211Z 15005KT 22/20 A2995 RMK A01 T02220195  RH  085%=      5-min Rain = 0
KTH1 141212Z 15006KT 22/20 A2995 RMK A01 T02220196  RH  085%=      5-min Rain = 0
KTH1 141213Z 15005KT 22/20 A2996 RMK A01 T02220196  RH  085%=      5-min Rain = 0
KTH1 141214Z 15006KT 22/20 A2996 RMK A01 T02220196  RH  085%=      5-min Rain = 0
KTH1 141215Z 15007KT 22/20 A2996 RMK A01 T02230196  RH  085%=      5-min Rain = 0
KTH1 141216Z 15004KT 22/20 A2996 RMK A01 T02230196  RH  085%=      5-min Rain = 0
KTH1 141217Z 15007KT 22/20 A2996 RMK A01 T02220196  RH  085%=      5-min Rain = 0
KTH1 141218Z 14006KT 22/20 A2996 RMK A01 T02220195  RH  085%=      5-min Rain = 0
KTH1 141219Z 14006KT 22/20 A2996 RMK A01 T02220195  RH  085%=      5-min Rain = 0
KTH1 141220Z 14005KT 22/20 A2996 RMK A01 T02220196  RH  085%=      5-min Rain = 0
KTH1 141221Z 14006KT 22/20 A2996 RMK A01 T02220196  RH  085%=      5-min Rain = 0
KTH1 141222Z 14006KT 22/20 A2996 RMK A01 T02220196  RH  085%=      5-min Rain = 0
KTH1 141223Z 14006KT 22/20 A2996 RMK A01 T02220196  RH  085%=      5-min Rain = 0
KTH1 141224Z 14007KT 22/20 A2996 RMK A01 T02220196  RH  085%=      5-min Rain = 0
KTH1 141225Z 14006KT 22/20 A2996 RMK A01 T02220196  RH  085%=      5-min Rain = 0
KTH1 141226Z 14006KT 22/20 A2996 RMK A01 T02220195  RH  085%=      5-min Rain = 0
KTH1 141227Z 15008KT 22/20 A2996 RMK A01 T02220196  RH  085%=      5-min Rain = 0
KTH1 141228Z 15007KT 22/20 A2996 RMK A01 T02230196  RH  085%=      5-min Rain = 0
KTH1 141229Z 15008KT 22/20 A2996 RMK A01 T02230196  RH  084%=      5-min Rain = 0
KTH1 141230Z 14007KT 22/20 A2996 RMK A01 T02230196  RH  084%=      5-min Rain = 0
KTH1 141231Z 15007KT 22/20 A2996 RMK A01 T02240196  RH  084%=      5-min Rain = 0
KTH1 141232Z 15008KT 22/20 A2996 RMK A01 T02240196  RH  084%=      5-min Rain = 0
KTH1 141233Z 15006KT 22/20 A2996 RMK A01 T02240196  RH  084%=      5-min Rain = 0
KTH1 141234Z 15005KT 22/20 A2996 RMK A01 T02240196  RH  084%=      5-min Rain = 0
KTH1 141235Z 15006KT 22/20 A2996 RMK A01 T02240196  RH  084%=      5-min Rain = 0
KTH1 141236Z 15007KT 22/20 A2996 RMK A01 T02240196  RH  084%=      5-min Rain = 0
KTH1 141237Z 15007KT 22/20 A2996 RMK A01 T02240196  RH  084%=      5-min Rain = 0
KTH1 141238Z 15007KT 23/20 A2996 RMK A01 T02250196  RH  084%=      5-min Rain = 0
KTH1 141239Z 15005KT 23/20 A2996 RMK A01 T02250197  RH  084%=      5-min Rain = 0
KTH1 141240Z 14007KT 23/20 A2996 RMK A01 T02260197  RH  084%=      5-min Rain = 0
KTH1 141241Z 14007KT 23/20 A2996 RMK A01 T02260196  RH  083%=      5-min Rain = 0
KTH1 141242Z 15007KT 23/20 A2996 RMK A01 T02270197  RH  083%=      5-min Rain = 0
KTH1 141243Z 15006KT 23/20 A2996 RMK A01 T02280197  RH  083%=      5-min Rain = 0
KTH1 141244Z 14005KT 23/20 A2996 RMK A01 T02280197  RH  083%=      5-min Rain = 0
KTH1 141245Z 14006KT 23/20 A2996 RMK A01 T02290198  RH  082%=      5-min Rain = 0
KTH1 141246Z 15007KT 23/20 A2997 RMK A01 T02290197  RH  082%=      5-min Rain = 0
KTH1 141247Z 14007KT 23/20 A2997 RMK A01 T02290197  RH  082%=      5-min Rain = 0
KTH1 141248Z 14007KT 23/20 A2997 RMK A01 T02300198  RH  082%=      5-min Rain = 0
KTH1 141249Z 15008KT 23/20 A2997 RMK A01 T02310198  RH  082%=      5-min Rain = 0
KTH1 141250Z 15007KT 23/20 A2997 RMK A01 T02310197  RH  081%=      5-min Rain = 0
KTH1 141251Z 14008KT 23/20 A2997 RMK A01 T02310197  RH  081%=      5-min Rain = 0
KTH1 141252Z 14007KT 23/20 A2997 RMK A01 T02310197  RH  081%=      5-min Rain = 0
KTH1 141253Z 14008KT 23/20 A2997 RMK A01 T02320198  RH  081%=      5-min Rain = 0
KTH1 141254Z 15008KT 23/20 A2997 RMK A01 T02330197  RH  081%=      5-min Rain = 0
KTH1 141255Z 14008KT 23/20 A2997 RMK A01 T02330198  RH  081%=      5-min Rain = 0
KTH1 141256Z 16009KT 23/20 A2997 RMK A01 T02330198  RH  081%=      5-min Rain = 0
KTH1 141257Z 15008KT 23/20 A2997 RMK A01 T02330198  RH  081%=      5-min Rain = 0
KTH1 141258Z 15007KT 23/20 A2997 RMK A01 T02330198  RH  081%=      5-min Rain = 0
KTH1 141259Z 16006KT 23/20 A2997 RMK A01 T02330198  RH  081%=      5-min Rain = 0
KTH1 141300Z 15007KT 23/20 A2997 RMK A01 T02330198  RH  081%=      5-min Rain = 0
KTH1 141301Z 15009KT 23/20 A2997 RMK A01 T02340198  RH  080%=      5-min Rain = 0
KTH1 141302Z 15009KT 24/20 A2997 RMK A01 T02350198  RH  080%=      5-min Rain = 0
KTH1 141303Z 15009KT 24/20 A2997 RMK A01 T02350198  RH  080%=      5-min Rain = 0
KTH1 141304Z 15007KT 24/20 A2997 RMK A01 T02350198  RH  080%=      5-min Rain = 0
KTH1 141305Z 15006KT 24/20 A2997 RMK A01 T02350198  RH  080%=      5-min Rain = 0
KTH1 141306Z 15006KT 24/20 A2997 RMK A01 T02350199  RH  080%=      5-min Rain = 0
KTH1 141307Z 14009KT 24/20 A2997 RMK A01 T02360200  RH  080%=      5-min Rain = 0
KTH1 141308Z 15008KT 24/20 A2997 RMK A01 T02370199  RH  079%=      5-min Rain = 0
KTH1 141309Z 15008KT 24/20 A2997 RMK A01 T02370199  RH  079%=      5-min Rain = 0
KTH1 141310Z 15009KT 24/20 A2997 RMK A01 T02380198  RH  079%=      5-min Rain = 0
KTH1 141311Z 15008KT 24/20 A2997 RMK A01 T02380198  RH  078%=      5-min Rain = 0
KTH1 141312Z 15009KT 24/20 A2997 RMK A01 T02390199  RH  078%=      5-min Rain = 0
KTH1 141313Z 15011KT 24/20 A2997 RMK A01 T02400198  RH  078%=      5-min Rain = 0
KTH1 141314Z 15010KT 24/20 A2997 RMK A01 T02400198  RH  077%=      5-min Rain = 0
KTH1 141315Z 16009KT 24/20 A2997 RMK A01 T02400199  RH  078%=      5-min Rain = 0
KTH1 141316Z 16007KT 24/20 A2997 RMK A01 T02410199  RH  077%=      5-min Rain = 0
KTH1 141317Z 15006KT 24/20 A2997 RMK A01 T02420200  RH  077%=      5-min Rain = 0
KTH1 141318Z 15008KT 24/20 A2997 RMK A01 T02430200  RH  077%=      5-min Rain = 0
KTH1 141319Z 15010KT 24/20 A2997 RMK A01 T02430199  RH  077%=      5-min Rain = 0
KTH1 141320Z 16006KT 24/20 A2997 RMK A01 T02430199  RH  076%=      5-min Rain = 0
KTH1 141321Z 16006KT 24/20 A2997 RMK A01 T02440201  RH  077%=      5-min Rain = 0
KTH1 141322Z 15010KT 25/20 A2997 RMK A01 T02450200  RH  076%=      5-min Rain = 0
KTH1 141323Z 15009KT 25/20 A2997 RMK A01 T02450199  RH  075%=      5-min Rain = 0
KTH1 141324Z 16011KT 25/20 A2997 RMK A01 T02450199  RH  075%=      5-min Rain = 0
KTH1 141325Z 15010KT 24/20 A2997 RMK A01 T02440198  RH  076%=      5-min Rain = 0
KTH1 141326Z 15011KT 24/20 A2997 RMK A01 T02440198  RH  075%=      5-min Rain = 0
KTH1 141327Z 16013KT 24/20 A2997 RMK A01 T02440198  RH  076%=      5-min Rain = 0
KTH1 141328Z 15010G15KT 24/20 A2997 RMK A01 T02430197  RH  075%=      5-min Rain = 0
KTH1 141329Z 15011KT 24/20 A2997 RMK A01 T02430197  RH  076%=      5-min Rain = 0
KTH1 141330Z 15010KT 24/20 A2997 RMK A01 T02430198  RH  076%=      5-min Rain = 0
KTH1 141331Z 15010KT 24/20 A2997 RMK A01 T02430197  RH  076%=      5-min Rain = 0
KTH1 141332Z 16010G15KT 24/20 A2997 RMK A01 T02430198  RH  076%=      5-min Rain = 0
KTH1 141333Z 16012KT 24/20 A2997 RMK A01 T02430197  RH  075%=      5-min Rain = 0
KTH1 141334Z 15010KT 24/20 A2997 RMK A01 T02430198  RH  076%=      5-min Rain = 0
KTH1 141335Z 15011KT 24/20 A2997 RMK A01 T02440197  RH  075%=      5-min Rain = 0
KTH1 141336Z 16010KT 24/20 A2997 RMK A01 T02440198  RH  075%=      5-min Rain = 0
KTH1 141337Z 16009KT 25/20 A2997 RMK A01 T02450198  RH  075%=      5-min Rain = 0
KTH1 141338Z 17010G16KT 25/20 A2997 RMK A01 T02450198  RH  075%=      5-min Rain = 0
KTH1 141339Z 16011KT 25/20 A2997 RMK A01 T02460197  RH  074%=      5-min Rain = 0
KTH1 141340Z 17009G15KT 25/20 A2998 RMK A01 T02460197  RH  074%=      5-min Rain = 0
KTH1 141341Z 17010G16KT 25/20 A2998 RMK A01 T02460197  RH  074%=      5-min Rain = 0
KTH1 141342Z 17008G14KT 25/20 A2998 RMK A01 T02450197  RH  075%=      5-min Rain = 0
KTH1 141343Z 14007KT 24/20 A2998 RMK A01 T02440199  RH  076%=      5-min Rain = 0
KTH1 141344Z 16007G13KT 24/20 A2998 RMK A01 T02430198  RH  076%=      5-min Rain = 0
KTH1 141345Z 16010KT 24/20 A2998 RMK A01 T02420196  RH  075%=      5-min Rain = 0
KTH1 141346Z 17009KT 24/20 A2998 RMK A01 T02410195  RH  076%=      5-min Rain = 0
KTH1 141347Z 17009G14KT 24/20 A2998 RMK A01 T02400196  RH  076%=      5-min Rain = 0
KTH1 141348Z 16008KT 24/20 A2998 RMK A01 T02390196  RH  077%=      5-min Rain = 0
KTH1 141349Z 16007KT 24/20 A2998 RMK A01 T02390196  RH  077%=      5-min Rain = 0
KTH1 141350Z 16008KT 24/20 A2998 RMK A01 T02390197  RH  077%=      5-min Rain = 0
KTH1 141351Z 16009KT 24/20 A2998 RMK A01 T02390196  RH  077%=      5-min Rain = 0
KTH1 141352Z 17010G16KT 24/20 A2998 RMK A01 T02390195  RH  076%=      5-min Rain = 0
KTH1 141353Z 17010KT 24/19 A2998 RMK A01 T02390194  RH  076%=      5-min Rain = 0
KTH1 141354Z 16010KT 24/20 A2998 RMK A01 T02390196  RH  077%=      5-min Rain = 0
KTH1 141355Z 16011KT 24/20 A2998 RMK A01 T02390195  RH  076%=      5-min Rain = 0
KTH1 141356Z 16008KT 24/20 A2998 RMK A01 T02390195  RH  076%=      5-min Rain = 0
KTH1 141357Z 17009KT 24/20 A2998 RMK A01 T02390195  RH  076%=      5-min Rain = 0
KTH1 141358Z 16007KT 24/20 A2998 RMK A01 T02400196  RH  076%=      5-min Rain = 0
KTH1 141359Z 16008KT 24/20 A2998 RMK A01 T02410198  RH  077%=      5-min Rain = 0
KTH1 141400Z 15010KT 24/20 A2998 RMK A01 T02420197  RH  076%=      5-min Rain = 0
KTH1 141401Z 15009KT 24/20 A2998 RMK A01 T02440197  RH  075%=      5-min Rain = 0
KTH1 141402Z 15012KT 25/20 A2997 RMK A01 T02450197  RH  074%=      5-min Rain = 0
KTH1 141403Z 15011KT 25/20 A2997 RMK A01 T02450196  RH  074%=      5-min Rain = 0
KTH1 141404Z 16009G15KT 25/20 A2997 RMK A01 T02450197  RH  075%=      5-min Rain = 0
KTH1 141405Z 16011G18KT 25/20 A2997 RMK A01 T02450198  RH  075%=      5-min Rain = 0
KTH1 141406Z 16012KT 25/20 A2997 RMK A01 T02450196  RH  074%=      5-min Rain = 0
KTH1 141407Z 17010KT 25/20 A2997 RMK A01 T02450197  RH  074%=      5-min Rain = 0
KTH1 141408Z 16010KT 25/20 A2997 RMK A01 T02460198  RH  075%=      5-min Rain = 0
KTH1 141409Z 16012KT 25/20 A2997 RMK A01 T02460197  RH  074%=      5-min Rain = 0
KTH1 141410Z 16013G19KT 25/20 A2997 RMK A01 T02460196  RH  074%=      5-min Rain = 0
KTH1 141411Z 17011KT 25/20 A2997 RMK A01 T02460196  RH  073%=      5-min Rain = 0
KTH1 141412Z 18011KT 25/20 A2997 RMK A01 T02460196  RH  074%=      5-min Rain = 0
KTH1 141413Z 16007G12KT 25/20 A2997 RMK A01 T02460198  RH  074%=      5-min Rain = 0
KTH1 141414Z 16012G17KT 25/20 A2997 RMK A01 T02460198  RH  074%=      5-min Rain = 0
KTH1 141415Z 16012G18KT 25/20 A2997 RMK A01 T02460196  RH  074%=      5-min Rain = 0
KTH1 141416Z 17011KT 25/20 A2998 RMK A01 T02460196  RH  074%=      5-min Rain = 0
KTH1 141417Z 17010KT 25/20 A2998 RMK A01 T02460197  RH  074%=      5-min Rain = 0
KTH1 141418Z 18010KT 25/20 A2997 RMK A01 T02470197  RH  074%=      5-min Rain = 0
KTH1 141419Z 16011KT 25/20 A2997 RMK A01 T02470198  RH  074%=      5-min Rain = 0
KTH1 141420Z 15011KT 25/20 A2998 RMK A01 T02470198  RH  074%=      5-min Rain = 0
KTH1 141421Z 16012KT 25/20 A2998 RMK A01 T02480197  RH  073%=      5-min Rain = 0
KTH1 141422Z 16008KT 25/20 A2998 RMK A01 T02470198  RH  074%=      5-min Rain = 0
KTH1 141423Z 15007KT 25/20 A2998 RMK A01 T02470197  RH  074%=      5-min Rain = 0
KTH1 141424Z 17009G14KT 25/20 A2998 RMK A01 T02470197  RH  074%=      5-min Rain = 0
KTH1 141425Z 15012KT 25/20 A2998 RMK A01 T02470198  RH  074%=      5-min Rain = 0
KTH1 141426Z 15011KT 25/20 A2998 RMK A01 T02470197  RH  074%=      5-min Rain = 0
KTH1 141427Z 16010KT 25/20 A2998 RMK A01 T02480197  RH  074%=      5-min Rain = 0
KTH1 141428Z 17008KT 25/20 A2998 RMK A01 T02490198  RH  073%=      5-min Rain = 0
KTH1 141429Z 18009G14KT 25/20 A2998 RMK A01 T02500201  RH  074%=      5-min Rain = 0
KTH1 141430Z 18012KT 25/20 A2998 RMK A01 T02520200  RH  073%=      5-min Rain = 0
KTH1 141431Z 19010KT 25/20 A2998 RMK A01 T02530200  RH  072%=      5-min Rain = 0
KTH1 141432Z 18009KT 25/20 A2998 RMK A01 T02540200  RH  072%=      5-min Rain = 0
KTH1 141433Z 18007G14KT 26/20 A2998 RMK A01 T02550202  RH  073%=      5-min Rain = 0
KTH1 141434Z 17013KT 26/20 A2998 RMK A01 T02560201  RH  071%=      5-min Rain = 0
KTH1 141435Z 16012KT 26/20 A2998 RMK A01 T02570201  RH  072%=      5-min Rain = 0
KTH1 141436Z 16010KT 26/20 A2998 RMK A01 T02560201  RH  071%=      5-min Rain = 0
KTH1 141437Z 17011KT 26/20 A2998 RMK A01 T02560200  RH  071%=      5-min Rain = 0
KTH1 141438Z 17011G17KT 25/20 A2998 RMK A01 T02540198  RH  071%=      5-min Rain = 0
KTH1 141439Z 17010G16KT 25/20 A2998 RMK A01 T02520200  RH  073%=      5-min Rain = 0
KTH1 141440Z 18011KT 25/20 A2998 RMK A01 T02520199  RH  073%=      5-min Rain = 0
KTH1 141441Z 18012KT 25/20 A2998 RMK A01 T02520198  RH  072%=      5-min Rain = 0
KTH1 141442Z 17011G18KT 25/20 A2998 RMK A01 T02520199  RH  073%=      5-min Rain = 0
KTH1 141443Z 18013KT 25/20 A2998 RMK A01 T02510199  RH  073%=      5-min Rain = 0
KTH1 141444Z 17010KT 25/20 A2998 RMK A01 T02510199  RH  073%=      5-min Rain = 0
KTH1 141445Z 17012G18KT 25/20 A2998 RMK A01 T02510198  RH  073%=      5-min Rain = 0
KTH1 141446Z 18010KT 25/20 A2997 RMK A01 T02510199  RH  073%=      5-min Rain = 0
KTH1 141447Z 17008KT 25/20 A2997 RMK A01 T02510200  RH  073%=      5-min Rain = 0
KTH1 141448Z 19011KT 25/20 A2997 RMK A01 T02510200  RH  073%=      5-min Rain = 0
KTH1 141449Z 17007KT 25/20 A2997 RMK A01 T02530201  RH  073%=      5-min Rain = 0
KTH1 141450Z 17012KT 25/20 A2997 RMK A01 T02530200  RH  072%=      5-min Rain = 0
KTH1 141451Z 17013KT 25/20 A2997 RMK A01 T02540200  RH  072%=      5-min Rain = 0
KTH1 141452Z 17011KT 26/20 A2997 RMK A01 T02550202  RH  072%=      5-min Rain = 0
KTH1 141453Z 18009KT 26/20 A2997 RMK A01 T02560202  RH  072%=      5-min Rain = 0
KTH1 141454Z 16013KT 26/20 A2997 RMK A01 T02580202  RH  071%=      5-min Rain = 0
KTH1 141455Z 17012KT 26/20 A2997 RMK A01 T02580201  RH  071%=      5-min Rain = 0
KTH1 141456Z 17013KT 26/20 A2997 RMK A01 T02570201  RH  071%=      5-min Rain = 0
KTH1 141457Z 17010KT 26/20 A2997 RMK A01 T02570202  RH  071%=      5-min Rain = 0
KTH1 141458Z 16008G13KT 26/20 A2997 RMK A01 T02580202  RH  071%=      5-min Rain = 0
KTH1 141459Z 17010KT 26/20 A2997 RMK A01 T02590202  RH  071%=      5-min Rain = 0
KTH1 141500Z 17008KT 26/20 A2997 RMK A01 T02590203  RH  071%=      5-min Rain = 0
KTH1 141501Z 16008KT 26/21 A2997 RMK A01 T02590205  RH  072%=      5-min Rain = 0
KTH1 141502Z 17010KT 26/20 A2997 RMK A01 T02600203  RH  071%=      5-min Rain = 0
KTH1 141503Z 17011KT 26/20 A2997 RMK A01 T02620203  RH  070%=      5-min Rain = 0
KTH1 141504Z 17008KT 26/21 A2997 RMK A01 T02610205  RH  071%=      5-min Rain = 0
KTH1 141505Z 17013G20KT 26/20 A2997 RMK A01 T02620203  RH  070%=      5-min Rain = 0
KTH1 141506Z 18012G17KT 26/20 A2997 RMK A01 T02610202  RH  070%=      5-min Rain = 0
KTH1 141507Z 17013KT 26/20 A2997 RMK A01 T02610202  RH  070%=      5-min Rain = 0
KTH1 141508Z 17012G17KT 26/20 A2997 RMK A01 T02600201  RH  070%=      5-min Rain = 0
KTH1 141509Z 17017G22KT 26/20 A2997 RMK A01 T02580200  RH  070%=      5-min Rain = 0
KTH1 141510Z 17015G21KT 26/20 A2997 RMK A01 T02550197  RH  070%=      5-min Rain = 0
KTH1 141511Z 17013KT 25/20 A2997 RMK A01 T02520198  RH  072%=      5-min Rain = 0
KTH1 141512Z 18012G17KT 25/20 A2997 RMK A01 T02500197  RH  072%=      5-min Rain = 0
KTH1 141513Z 17013G18KT 25/20 A2997 RMK A01 T02490198  RH  073%=      5-min Rain = 0
KTH1 141514Z 17012KT 25/20 A2997 RMK A01 T02490198  RH  073%=      5-min Rain = 0
KTH1 141515Z 18009G14KT 25/20 A2997 RMK A01 T02500198  RH  073%=      5-min Rain = 0
KTH1 141516Z 17009KT 25/20 A2997 RMK A01 T02510200  RH  073%=      5-min Rain = 0
KTH1 141517Z 18008G14KT 25/20 A2997 RMK A01 T02520202  RH  074%=      5-min Rain = 0
KTH1 141518Z 18013KT 25/20 A2997 RMK A01 T02540201  RH  073%=      5-min Rain = 0
KTH1 141519Z 18013G18KT 25/20 A2997 RMK A01 T02540199  RH  072%=      5-min Rain = 0
KTH1 141520Z 18012G18KT 25/20 A2997 RMK A01 T02540199  RH  072%=      5-min Rain = 0
KTH1 141521Z 18011KT 25/20 A2997 RMK A01 T02540200  RH  072%=      5-min Rain = 0
KTH1 141522Z 18010G15KT 25/20 A2997 RMK A01 T02540201  RH  072%=      5-min Rain = 0
KTH1 141523Z 16013G19KT 26/20 A2997 RMK A01 T02560201  RH  072%=      5-min Rain = 0
KTH1 141524Z 17010G15KT 26/20 A2997 RMK A01 T02570200  RH  071%=      5-min Rain = 0
KTH1 141525Z 17012G18KT 26/20 A2997 RMK A01 T02580201  RH  071%=      5-min Rain = 0
KTH1 141526Z 18009G15KT 26/20 A2997 RMK A01 T02580200  RH  070%=      5-min Rain = 0
KTH1 141527Z 18009G14KT 26/20 A2997 RMK A01 T02580202  RH  071%=      5-min Rain = 0
KTH1 141528Z 18008KT 26/20 A2997 RMK A01 T02600204  RH  071%=      5-min Rain = 0
KTH1 141529Z 17010G16KT 26/21 A2997 RMK A01 T02620205  RH  071%=      5-min Rain = 0
KTH1 141530Z 17008G14KT 26/20 A2997 RMK A01 T02640204  RH  070%=      5-min Rain = 0
KTH1 141531Z 16011G17KT 26/20 A2997 RMK A01 T02640203  RH  069%=      5-min Rain = 0
KTH1 141532Z 16009KT 27/21 A2997 RMK A01 T02650205  RH  070%=      5-min Rain = 0
KTH1 141533Z 15011KT 27/20 A2997 RMK A01 T02660203  RH  068%=      5-min Rain = 0
KTH1 141534Z 16011KT 27/21 A2997 RMK A01 T02660205  RH  069%=      5-min Rain = 0
KTH1 141535Z 16016KT 27/20 A2997 RMK A01 T02660202  RH  068%=      5-min Rain = 0
KTH1 141536Z 16013KT 26/20 A2997 RMK A01 T02640203  RH  069%=      5-min Rain = 0
KTH1 141537Z 15012KT 26/20 A2997 RMK A01 T02640202  RH  069%=      5-min Rain = 0
KTH1 141538Z 16011KT 26/20 A2997 RMK A01 T02640202  RH  069%=      5-min Rain = 0
KTH1 141539Z 16012G17KT 26/20 A2997 RMK A01 T02630203  RH  069%=      5-min Rain = 0
KTH1 141540Z 16014KT 26/20 A2997 RMK A01 T02630202  RH  069%=      5-min Rain = 0
KTH1 141541Z 16012KT 26/20 A2997 RMK A01 T02620202  RH  069%=      5-min Rain = 0
KTH1 141542Z 16013G18KT 26/20 A2997 RMK A01 T02620202  RH  069%=      5-min Rain = 0
KTH1 141543Z 17010KT 26/20 A2997 RMK A01 T02620203  RH  070%=      5-min Rain = 0
KTH1 141544Z 16013KT 26/20 A2997 RMK A01 T02620202  RH  070%=      5-min Rain = 0
KTH1 141545Z 18015KT 26/20 A2997 RMK A01 T02620200  RH  069%=      5-min Rain = 0
KTH1 141546Z 17008G13KT 26/20 A2997 RMK A01 T02610202  RH  070%=      5-min Rain = 0
KTH1 141547Z 16008KT 26/20 A2997 RMK A01 T02610204  RH  070%=      5-min Rain = 0
KTH1 141548Z 17010G18KT 26/21 A2997 RMK A01 T02630205  RH  070%=      5-min Rain = 0
KTH1 141549Z 17011G16KT 26/20 A2997 RMK A01 T02640202  RH  068%=      5-min Rain = 0
KTH1 141550Z 16010KT 26/20 A2997 RMK A01 T02640203  RH  069%=      5-min Rain = 0
KTH1 141551Z 17011KT 26/21 A2997 RMK A01 T02640205  RH  070%=      5-min Rain = 0
KTH1 141552Z 18011KT 27/20 A2997 RMK A01 T02650203  RH  069%=      5-min Rain = 0
KTH1 141553Z 17009G14KT 27/20 A2997 RMK A01 T02650204  RH  069%=      5-min Rain = 0
KTH1 141554Z 17014KT 27/20 A2997 RMK A01 T02660203  RH  069%=      5-min Rain = 0
KTH1 141555Z 18013KT 27/20 A2997 RMK A01 T02660203  RH  069%=      5-min Rain = 0
KTH1 141556Z 17012G18KT 27/20 A2997 RMK A01 T02660204  RH  069%=      5-min Rain = 0
KTH1 141557Z 18010KT 27/20 A2997 RMK A01 T02660204  RH  069%=      5-min Rain = 0
KTH1 141558Z 17016KT 27/20 A2997 RMK A01 T02660203  RH  068%=      5-min Rain = 0
KTH1 141559Z 17015KT 27/20 A2997 RMK A01 T02650202  RH  068%=      5-min Rain = 0
KTH1 141600Z 18014G19KT 27/20 A2997 RMK A01 T02650202  RH  068%=      5-min Rain = 0
KTH1 141601Z 18014G19KT 27/20 A2997 RMK A01 T02650202  RH  068%=      5-min Rain = 0
KTH1 141602Z 17010KT 27/20 A2997 RMK A01 T02650203  RH  069%=      5-min Rain = 0
KTH1 141603Z 17010G16KT 27/21 A2997 RMK A01 T02660205  RH  069%=      5-min Rain = 0
KTH1 141604Z 17008G16KT 27/21 A2997 RMK A01 T02680209  RH  070%=      5-min Rain = 0
KTH1 141605Z 18014KT 27/21 A2997 RMK A01 T02710206  RH  068%=      5-min Rain = 0
KTH1 141606Z 17013G19KT 27/20 A2997 RMK A01 T02710204  RH  067%=      5-min Rain = 0
KTH1 141607Z 18013G18KT 27/21 A2997 RMK A01 T02710206  RH  067%=      5-min Rain = 0
KTH1 141608Z 18010G16KT 27/21 A2997 RMK A01 T02710205  RH  067%=      5-min Rain = 0
KTH1 141609Z 17012G17KT 27/21 A2997 RMK A01 T02700205  RH  068%=      5-min Rain = 0
KTH1 141610Z 18012G17KT 27/20 A2997 RMK A01 T02710204  RH  067%=      5-min Rain = 0
KTH1 141611Z 17014KT 27/20 A2997 RMK A01 T02710204  RH  067%=      5-min Rain = 0
KTH1 141612Z 18010KT 27/20 A2997 RMK A01 T02700204  RH  067%=      5-min Rain = 0
KTH1 141613Z 18011KT 27/21 A2997 RMK A01 T02690206  RH  068%=      5-min Rain = 0
KTH1 141614Z 20012G17KT 27/21 A2997 RMK A01 T02690205  RH  068%=      5-min Rain = 0
KTH1 141615Z 19012G17KT 27/20 A2997 RMK A01 T02690204  RH  068%=      5-min Rain = 0
KTH1 141616Z 19008G13KT 27/21 A2997 RMK A01 T02680205  RH  068%=      5-min Rain = 0
KTH1 141617Z 18008KT 27/21 A2997 RMK A01 T02690206  RH  068%=      5-min Rain = 0
KTH1 141618Z 18007G14KT 27/21 A2997 RMK A01 T02710209  RH  069%=      5-min Rain = 0
KTH1 141619Z 18009G15KT 28/21 A2997 RMK A01 T02750211  RH  068%=      5-min Rain = 0
KTH1 141620Z 18013KT 28/21 A2997 RMK A01 T02770207  RH  066%=      5-min Rain = 0
KTH1 141621Z 17010G15KT 28/21 A2997 RMK A01 T02770206  RH  066%=      5-min Rain = 0
KTH1 141622Z 17012KT 28/21 A2996 RMK A01 T02760206  RH  066%=      5-min Rain = 0
KTH1 141623Z 17011KT 28/21 A2996 RMK A01 T02750205  RH  066%=      5-min Rain = 0
KTH1 141624Z 18015G21KT 27/21 A2996 RMK A01 T02740205  RH  066%=      5-min Rain = 0
KTH1 141625Z 18014KT 27/20 A2996 RMK A01 T02730204  RH  066%=      5-min Rain = 0
KTH1 141626Z 18012G17KT 27/21 A2997 RMK A01 T02730207  RH  067%=      5-min Rain = 0
KTH1 141627Z 18013KT 27/21 A2997 RMK A01 T02740205  RH  066%=      5-min Rain = 0
KTH1 141628Z 19011KT 27/21 A2997 RMK A01 T02740205  RH  066%=      5-min Rain = 0
KTH1 141629Z 19011KT 27/21 A2997 RMK A01 T02740206  RH  067%=      5-min Rain = 0
KTH1 141630Z 19011G18KT 28/21 A2997 RMK A01 T02750207  RH  066%=      5-min Rain = 0
KTH1 141631Z 17011KT 28/21 A2997 RMK A01 T02750205  RH  066%=      5-min Rain = 0
KTH1 141632Z 18009KT 28/21 A2997 RMK A01 T02750205  RH  066%=      5-min Rain = 0
KTH1 141633Z 19010KT 28/21 A2997 RMK A01 T02750207  RH  066%=      5-min Rain = 0
KTH1 141634Z 19011KT 28/21 A2997 RMK A01 T02750206  RH  066%=      5-min Rain = 0
KTH1 141635Z 20009G14KT 28/21 A2997 RMK A01 T02750208  RH  067%=      5-min Rain = 0
KTH1 141636Z 20011KT 28/21 A2997 RMK A01 T02750205  RH  066%=      5-min Rain = 0
KTH1 141637Z 20010KT 28/21 A2997 RMK A01 T02750206  RH  066%=      5-min Rain = 0
KTH1 141638Z 20012KT 27/21 A2997 RMK A01 T02740205  RH  066%=      5-min Rain = 0
KTH1 141639Z 21011KT 27/21 A2997 RMK A01 T02730206  RH  067%=      5-min Rain = 0
KTH1 141640Z 21012G18KT 27/21 A2996 RMK A01 T02740206  RH  067%=      5-min Rain = 0
KTH1 141641Z 19013G19KT 28/21 A2997 RMK A01 T02750206  RH  066%=      5-min Rain = 0
KTH1 141642Z 19010KT 28/21 A2997 RMK A01 T02770207  RH  066%=      5-min Rain = 0
KTH1 141643Z 19009G14KT 28/21 A2997 RMK A01 T02790208  RH  065%=      5-min Rain = 0
KTH1 141644Z 20010KT 28/21 A2996 RMK A01 T02800207  RH  065%=      5-min Rain = 0
KTH1 141645Z 20009G14KT 28/21 A2996 RMK A01 T02800210  RH  066%=      5-min Rain = 0
KTH1 141646Z 20010KT 28/21 A2996 RMK A01 T02800207  RH  065%=      5-min Rain = 0
KTH1 141647Z 20012G17KT 28/21 A2996 RMK A01 T02780206  RH  065%=      5-min Rain = 0
KTH1 141648Z 20013KT 28/21 A2996 RMK A01 T02780206  RH  065%=      5-min Rain = 0
KTH1 141649Z 21009KT 28/21 A2996 RMK A01 T02780207  RH  065%=      5-min Rain = 0
KTH1 141650Z 21009KT 28/21 A2996 RMK A01 T02790209  RH  066%=      5-min Rain = 0
KTH1 141651Z 19011G16KT 28/21 A2996 RMK A01 T02800208  RH  065%=      5-min Rain = 0
KTH1 141652Z 18010G15KT 28/21 A2996 RMK A01 T02800208  RH  065%=      5-min Rain = 0
KTH1 141653Z 19012G19KT 28/21 A2996 RMK A01 T02820211  RH  065%=      5-min Rain = 0
KTH1 141654Z 19012KT 28/21 A2996 RMK A01 T02830209  RH  064%=      5-min Rain = 0
KTH1 141655Z 18011KT 28/21 A2996 RMK A01 T02830209  RH  064%=      5-min Rain = 0
KTH1 141656Z 18011KT 28/21 A2996 RMK A01 T02830208  RH  064%=      5-min Rain = 0
KTH1 141657Z 19012KT 28/21 A2996 RMK A01 T02840209  RH  064%=      5-min Rain = 0
KTH1 141658Z 19011KT 28/21 A2996 RMK A01 T02840209  RH  064%=      5-min Rain = 0
KTH1 141659Z 18010KT 29/21 A2996 RMK A01 T02850211  RH  064%=      5-min Rain = 0
KTH1 141700Z 18011G16KT 29/21 A2996 RMK A01 T02850212  RH  065%=      5-min Rain = 0
KTH1 141701Z 21012KT 29/21 A2996 RMK A01 T02860210  RH  064%=      5-min Rain = 0
KTH1 141702Z 20012KT 29/21 A2996 RMK A01 T02850208  RH  063%=      5-min Rain = 0
KTH1 141703Z 19010KT 29/21 A2996 RMK A01 T02850208  RH  063%=      5-min Rain = 0
KTH1 141704Z 18013KT 29/21 A2996 RMK A01 T02850207  RH  063%=      5-min Rain = 0
KTH1 141705Z 18012G18KT 28/21 A2996 RMK A01 T02840207  RH  063%=      5-min Rain = 0
KTH1 141706Z 18012KT 28/21 A2996 RMK A01 T02840207  RH  063%=      5-min Rain = 0
KTH1 141707Z 16011KT 29/21 A2996 RMK A01 T02850208  RH  063%=      5-min Rain = 0
KTH1 141708Z 18009G15KT 29/21 A2996 RMK A01 T02860210  RH  064%=      5-min Rain = 0
KTH1 141709Z 19012KT 29/21 A2996 RMK A01 T02870207  RH  062%=      5-min Rain = 0
KTH1 141710Z 17012KT 29/21 A2996 RMK A01 T02860207  RH  062%=      5-min Rain = 0
KTH1 141711Z 17009G16KT 29/21 A2996 RMK A01 T02850208  RH  063%=      5-min Rain = 0
KTH1 141712Z 17013KT 29/21 A2996 RMK A01 T02850208  RH  063%=      5-min Rain = 0
KTH1 141713Z 16010G15KT 29/21 A2996 RMK A01 T02850207  RH  063%=      5-min Rain = 0
KTH1 141714Z 19011G16KT 28/21 A2996 RMK A01 T02840209  RH  064%=      5-min Rain = 0
KTH1 141715Z 18011KT 29/21 A2996 RMK A01 T02850208  RH  063%=      5-min Rain = 0
KTH1 141716Z 18013G18KT 29/21 A2996 RMK A01 T02870209  RH  063%=      5-min Rain = 0
KTH1 141717Z 17011KT 29/21 A2996 RMK A01 T02870206  RH  062%=      5-min Rain = 0
KTH1 141718Z 18011KT 29/21 A2996 RMK A01 T02870206  RH  062%=      5-min Rain = 0
KTH1 141719Z 18009KT 29/21 A2996 RMK A01 T02870209  RH  063%=      5-min Rain = 0
KTH1 141720Z 19012KT 29/21 A2996 RMK A01 T02880209  RH  062%=      5-min Rain = 0
KTH1 141721Z 19010KT 29/21 A2996 RMK A01 T02880208  RH  062%=      5-min Rain = 0
KTH1 141722Z 18010KT 29/21 A2996 RMK A01 T02870209  RH  062%=      5-min Rain = 0
KTH1 141723Z 18011KT 29/21 A2996 RMK A01 T02880207  RH  062%=      5-min Rain = 0
KTH1 141724Z 18014KT 29/21 A2995 RMK A01 T02870207  RH  062%=      5-min Rain = 0
KTH1 141725Z 18014KT 28/21 A2995 RMK A01 T02840205  RH  062%=      5-min Rain = 0
KTH1 141726Z 19014KT 28/21 A2996 RMK A01 T02830205  RH  063%=      5-min Rain = 0
KTH1 141727Z 19012KT 28/21 A2996 RMK A01 T02820208  RH  064%=      5-min Rain = 0
KTH1 141728Z 18012KT 28/21 A2995 RMK A01 T02830206  RH  063%=      5-min Rain = 0
KTH1 141729Z 21011KT 29/21 A2995 RMK A01 T02850210  RH  064%=      5-min Rain = 0
KTH1 141730Z 19011KT 29/21 A2995 RMK A01 T02880209  RH  062%=      5-min Rain = 0
KTH1 141731Z 20008KT 29/21 A2995 RMK A01 T02890210  RH  062%=      5-min Rain = 0
KTH1 141732Z 18010G15KT 29/21 A2995 RMK A01 T02890210  RH  063%=      5-min Rain = 0
KTH1 141733Z 17013KT 29/21 A2995 RMK A01 T02890207  RH  061%=      5-min Rain = 0
KTH1 141734Z 17012G17KT 29/21 A2995 RMK A01 T02860205  RH  062%=      5-min Rain = 0
KTH1 141735Z 18015KT 28/20 A2995 RMK A01 T02840204  RH  062%=      5-min Rain = 0
KTH1 141736Z 19010KT 28/21 A2995 RMK A01 T02820205  RH  063%=      5-min Rain = 0
KTH1 141737Z 19011G16KT 28/21 A2995 RMK A01 T02820206  RH  063%=      5-min Rain = 0
KTH1 141738Z 17012KT 28/21 A2995 RMK A01 T02810205  RH  063%=      5-min Rain = 0
KTH1 141739Z 17011KT 28/20 A2995 RMK A01 T02810204  RH  063%=      5-min Rain = 0
KTH1 141740Z 17011KT 28/21 A2995 RMK A01 T02800205  RH  064%=      5-min Rain = 0
KTH1 141741Z 19009G17KT 28/21 A2995 RMK A01 T02790206  RH  064%=      5-min Rain = 0
KTH1 141742Z 19012KT 28/21 A2995 RMK A01 T02790205  RH  064%=      5-min Rain = 0
KTH1 141743Z 19007G14KT 28/21 A2995 RMK A01 T02780205  RH  064%=      5-min Rain = 0
KTH1 141744Z 18007G12KT 28/21 A2995 RMK A01 T02780206  RH  065%=      5-min Rain = 0
KTH1 141745Z 18009KT 28/21 A2995 RMK A01 T02780206  RH  065%=      5-min Rain = 0
KTH1 141746Z 19010KT 28/20 A2995 RMK A01 T02780204  RH  064%=      5-min Rain = 0
KTH1 141747Z 18007KT 28/21 A2995 RMK A01 T02770205  RH  065%=      5-min Rain = 0
KTH1 141748Z 19005KT 28/21 A2995 RMK A01 T02770207  RH  066%=      5-min Rain = 0
KTH1 141749Z 19007KT 28/21 A2995 RMK A01 T02770209  RH  066%=      5-min Rain = 0
KTH1 141750Z 19008KT 28/21 A2995 RMK A01 T02780206  RH  065%=      5-min Rain = 0
KTH1 141751Z 18007G12KT 28/21 A2995 RMK A01 T02780205  RH  065%=      5-min Rain = 0
KTH1 141752Z 18007KT 28/21 A2995 RMK A01 T02780208  RH  066%=      5-min Rain = 0
KTH1 141753Z 20008G14KT 28/21 A2995 RMK A01 T02780207  RH  066%=      5-min Rain = 0
KTH1 141754Z 20010G18KT 28/21 A2995 RMK A01 T02790207  RH  065%=      5-min Rain = 0
KTH1 141755Z 19013KT 28/20 A2995 RMK A01 T02780203  RH  064%=      5-min Rain = 0
KTH1 141756Z 19007KT 28/21 A2995 RMK A01 T02770206  RH  065%=      5-min Rain = 0
KTH1 141757Z 18009KT 28/21 A2995 RMK A01 T02770205  RH  065%=      5-min Rain = 0
KTH1 141758Z 18010G16KT 28/21 A2995 RMK A01 T02780205  RH  065%=      5-min Rain = 0
KTH1 141759Z 18013KT 28/20 A2995 RMK A01 T02770204  RH  064%=      5-min Rain = 0
KTH1 141800Z 18010G15KT 28/20 A2995 RMK A01 T02780202  RH  064%=      5-min Rain = 0
KTH1 141801Z 19010KT 28/20 A2995 RMK A01 T02770204  RH  064%=      5-min Rain = 0
KTH1 141802Z 18012KT 28/20 A2995 RMK A01 T02780204  RH  064%=      5-min Rain = 0
KTH1 141803Z 18009KT 28/20 A2995 RMK A01 T02780203  RH  064%=      5-min Rain = 0
KTH1 141804Z 18007G13KT 28/21 A2995 RMK A01 T02780206  RH  065%=      5-min Rain = 0
KTH1 141805Z 18012KT 28/21 A2995 RMK A01 T02800205  RH  064%=      5-min Rain = 0
KTH1 141806Z 18011KT 28/21 A2995 RMK A01 T02800205  RH  064%=      5-min Rain = 0
KTH1 141807Z 19013KT 28/21 A2995 RMK A01 T02820205  RH  063%=      5-min Rain = 0
KTH1 141808Z 19013KT 28/20 A2995 RMK A01 T02820204  RH  063%=      5-min Rain = 0
KTH1 141809Z 19012KT 28/20 A2994 RMK A01 T02810204  RH  063%=      5-min Rain = 0
KTH1 141810Z 18010G15KT 28/20 A2995 RMK A01 T02800204  RH  063%=      5-min Rain = 0
KTH1 141811Z 18009KT 28/21 A2994 RMK A01 T02790206  RH  065%=      5-min Rain = 0
KTH1 141812Z 18008G14KT 28/21 A2995 RMK A01 T02790207  RH  065%=      5-min Rain = 0
KTH1 141813Z 18010G15KT 28/21 A2994 RMK A01 T02790205  RH  064%=      5-min Rain = 0
KTH1 141814Z 17008G13KT 28/21 A2994 RMK A01 T02790207  RH  065%=      5-min Rain = 0
KTH1 141815Z 18012KT 28/21 A2994 RMK A01 T02790206  RH  064%=      5-min Rain = 0
KTH1 141816Z 17009KT 28/20 A2994 RMK A01 T02790203  RH  063%=      5-min Rain = 0
KTH1 141817Z 18011KT 28/20 A2994 RMK A01 T02800204  RH  063%=      5-min Rain = 0
KTH1 141818Z 18010KT 28/21 A2994 RMK A01 T02810207  RH  064%=      5-min Rain = 0
KTH1 141819Z 18008KT 28/21 A2994 RMK A01 T02840210  RH  064%=      5-min Rain = 0
KTH1 141820Z 17008KT 29/21 A2994 RMK A01 T02860211  RH  064%=      5-min Rain = 0
KTH1 141821Z 17011G16KT 29/21 A2994 RMK A01 T02880210  RH  063%=      5-min Rain = 0
KTH1 141822Z 17012KT 29/21 A2994 RMK A01 T02870206  RH  061%=      5-min Rain = 0
KTH1 141823Z 18011KT 29/21 A2994 RMK A01 T02850205  RH  062%=      5-min Rain = 0
KTH1 141824Z 18011KT 28/20 A2994 RMK A01 T02830204  RH  062%=      5-min Rain = 0
KTH1 141825Z 18008KT 28/21 A2994 RMK A01 T02820206  RH  063%=      5-min Rain = 0
KTH1 141826Z 17008G14KT 28/21 A2994 RMK A01 T02810207  RH  064%=      5-min Rain = 0
KTH1 141827Z 17009G16KT 28/21 A2994 RMK A01 T02800205  RH  064%=      5-min Rain = 0
KTH1 141828Z 17011KT 28/20 A2994 RMK A01 T02780203  RH  064%=      5-min Rain = 0
KTH1 141829Z 18011G16KT 28/20 A2994 RMK A01 T02770204  RH  064%=      5-min Rain = 0
KTH1 141830Z 17009KT 28/20 A2994 RMK A01 T02760202  RH  064%=      5-min Rain = 0
KTH1 141831Z 18006KT 28/20 A2994 RMK A01 T02750204  RH  065%=      5-min Rain = 0
KTH1 141832Z 17009KT 28/21 A2994 RMK A01 T02750205  RH  066%=      5-min Rain = 0
KTH1 141833Z 18009KT 27/20 A2994 RMK A01 T02740204  RH  065%=      5-min Rain = 0
KTH1 141834Z 18010G15KT 27/20 A2994 RMK A01 T02740203  RH  065%=      5-min Rain = 0
KTH1 141835Z 17009KT 27/20 A2994 RMK A01 T02730203  RH  065%=      5-min Rain = 0
KTH1 141836Z 17011KT 27/20 A2994 RMK A01 T02730203  RH  066%=      5-min Rain = 0
KTH1 141837Z 19008KT 27/20 A2994 RMK A01 T02730204  RH  066%=      5-min Rain = 0
KTH1 141838Z 18006KT 27/20 A2994 RMK A01 T02730204  RH  066%=      5-min Rain = 0
KTH1 141839Z 17009KT 27/21 A2994 RMK A01 T02720205  RH  067%=      5-min Rain = 0
KTH1 141840Z 19009KT 27/20 A2994 RMK A01 T02730204  RH  066%=      5-min Rain = 0
KTH1 141841Z 19011KT 27/20 A2993 RMK A01 T02730204  RH  066%=      5-min Rain = 0
KTH1 141842Z 18007KT 27/20 A2993 RMK A01 T02730203  RH  066%=      5-min Rain = 0
KTH1 141843Z 18008KT 27/20 A2993 RMK A01 T02720204  RH  066%=      5-min Rain = 0
KTH1 141844Z 18008G13KT 27/21 A2993 RMK A01 T02730205  RH  066%=      5-min Rain = 0
KTH1 141845Z 17010KT 27/20 A2993 RMK A01 T02730204  RH  066%=      5-min Rain = 0
KTH1 141846Z 18007KT 27/20 A2993 RMK A01 T02730203  RH  066%=      5-min Rain = 0
KTH1 141847Z 18005KT 27/21 A2993 RMK A01 T02730205  RH  067%=      5-min Rain = 0
KTH1 141848Z 18008G13KT 27/20 A2993 RMK A01 T02730204  RH  066%=      5-min Rain = 0
KTH1 141849Z 18010KT 27/20 A2993 RMK A01 T02730204  RH  066%=      5-min Rain = 0
KTH1 141850Z 18011KT 27/20 A2993 RMK A01 T02740202  RH  065%=      5-min Rain = 0
KTH1 141851Z 19010KT 27/20 A2993 RMK A01 T02740203  RH  065%=      5-min Rain = 0
KTH1 141852Z 18009KT 27/20 A2993 RMK A01 T02740204  RH  065%=      5-min Rain = 0
KTH1 141853Z 19008KT 27/20 A2993 RMK A01 T02740203  RH  065%=      5-min Rain = 0
KTH1 141854Z 18009KT 28/20 A2993 RMK A01 T02750204  RH  065%=      5-min Rain = 0
KTH1 141855Z 18010KT 28/20 A2993 RMK A01 T02750203  RH  065%=      5-min Rain = 0
KTH1 141856Z 20005KT 28/20 A2993 RMK A01 T02750204  RH  065%=      5-min Rain = 0
KTH1 141857Z 19009G16KT 28/20 A2993 RMK A01 T02760204  RH  065%=      5-min Rain = 0
KTH1 141858Z 20008KT 28/20 A2993 RMK A01 T02760204  RH  065%=      5-min Rain = 0
KTH1 141859Z 19008KT 28/20 A2993 RMK A01 T02760204  RH  065%=      5-min Rain = 0
KTH1 141900Z 20008KT 28/21 A2993 RMK A01 T02770205  RH  065%=      5-min Rain = 0
KTH1 141901Z 20007KT 28/21 A2993 RMK A01 T02770205  RH  065%=      5-min Rain = 0
KTH1 141902Z 18006KT 28/21 A2993 RMK A01 T02770206  RH  065%=      5-min Rain = 0
KTH1 141903Z 19005G10KT 28/21 A2993 RMK A01 T02780207  RH  066%=      5-min Rain = 0
KTH1 141904Z 19008KT 28/21 A2993 RMK A01 T02790207  RH  065%=      5-min Rain = 0
KTH1 141905Z 19006KT 28/21 A2993 RMK A01 T02790206  RH  065%=      5-min Rain = 0
KTH1 141906Z 18005G10KT 28/21 A2993 RMK A01 T02790209  RH  066%=      5-min Rain = 0
KTH1 141907Z 19006KT 28/21 A2993 RMK A01 T02800208  RH  065%=      5-min Rain = 0
KTH1 141908Z 18008KT 28/21 A2993 RMK A01 T02810209  RH  065%=      5-min Rain = 0
KTH1 141909Z 18007KT 28/21 A2993 RMK A01 T02820207  RH  064%=      5-min Rain = 0
KTH1 141910Z 18009G14KT 28/21 A2993 RMK A01 T02820206  RH  064%=      5-min Rain = 0
KTH1 141911Z 19007KT 28/21 A2993 RMK A01 T02820207  RH  064%=      5-min Rain = 0
KTH1 141912Z 19005G12KT 28/21 A2993 RMK A01 T02820208  RH  064%=      5-min Rain = 0
KTH1 141913Z 19005KT 28/21 A2993 RMK A01 T02830209  RH  064%=      5-min Rain = 0
KTH1 141914Z 19005KT 28/21 A2993 RMK A01 T02840211  RH  064%=      5-min Rain = 0
KTH1 141915Z 17007G12KT 29/21 A2993 RMK A01 T02860209  RH  063%=      5-min Rain = 0
KTH1 141916Z 18008G13KT 29/21 A2993 RMK A01 T02870211  RH  064%=      5-min Rain = 0
KTH1 141917Z 18010KT 29/21 A2993 RMK A01 T02880208  RH  062%=      5-min Rain = 0
KTH1 141918Z 17009KT 29/21 A2993 RMK A01 T02880207  RH  062%=      5-min Rain = 0
KTH1 141919Z 17006KT 29/21 A2992 RMK A01 T02890210  RH  062%=      5-min Rain = 0
KTH1 141920Z 17009KT 29/21 A2992 RMK A01 T02900214  RH  063%=      5-min Rain = 0
KTH1 141921Z 18011KT 29/21 A2992 RMK A01 T02940213  RH  062%=      5-min Rain = 0
KTH1 141922Z 19008G14KT 30/21 A2992 RMK A01 T02950211  RH  061%=      5-min Rain = 0
KTH1 141923Z 17011G16KT 30/21 A2992 RMK A01 T02970214  RH  061%=      5-min Rain = 0
KTH1 141924Z 19007KT 30/21 A2992 RMK A01 T02980212  RH  060%=      5-min Rain = 0
KTH1 141925Z 19007KT 30/22 A2992 RMK A01 T02990215  RH  060%=      5-min Rain = 0
KTH1 141926Z 19007KT 30/22 A2992 RMK A01 T03010219  RH  062%=      5-min Rain = 0
KTH1 141927Z 18008G14KT 30/22 A2992 RMK A01 T03020217  RH  060%=      5-min Rain = 0
KTH1 141928Z 18012KT 30/21 A2992 RMK A01 T03040214  RH  059%=      5-min Rain = 0
KTH1 141929Z 18010KT 30/21 A2992 RMK A01 T03030212  RH  058%=      5-min Rain = 0
KTH1 141930Z 18009KT 30/21 A2992 RMK A01 T03000211  RH  059%=      5-min Rain = 0
KTH1 141931Z 19009G14KT 30/21 A2992 RMK A01 T02980211  RH  059%=      5-min Rain = 0
KTH1 141932Z 20011G16KT 30/21 A2992 RMK A01 T02980212  RH  060%=      5-min Rain = 0
KTH1 141933Z 20011KT 30/21 A2992 RMK A01 T03000214  RH  060%=      5-min Rain = 0
KTH1 141934Z 20012KT 30/22 A2992 RMK A01 T03030215  RH  059%=      5-min Rain = 0
KTH1 141935Z 19008G13KT 30/22 A2992 RMK A01 T03040216  RH  059%=      5-min Rain = 0
KTH1 141936Z 20011G17KT 31/22 A2992 RMK A01 T03060219  RH  060%=      5-min Rain = 0
KTH1 141937Z 21012G17KT 31/21 A2991 RMK A01 T03090214  RH  057%=      5-min Rain = 0
KTH1 141938Z 21010G15KT 31/21 A2991 RMK A01 T03070213  RH  057%=      5-min Rain = 0
KTH1 141939Z 18010KT 31/22 A2991 RMK A01 T03060216  RH  059%=      5-min Rain = 0
KTH1 141940Z 17011KT 31/21 A2991 RMK A01 T03060210  RH  057%=      5-min Rain = 0
KTH1 141941Z 16012KT 31/21 A2991 RMK A01 T03050211  RH  057%=      5-min Rain = 0
KTH1 141942Z 15011KT 30/21 A2991 RMK A01 T03040211  RH  057%=      5-min Rain = 0
KTH1 141943Z 16011KT 30/21 A2991 RMK A01 T03040212  RH  058%=      5-min Rain = 0
KTH1 141944Z 18009KT 30/22 A2991 RMK A01 T03040215  RH  059%=      5-min Rain = 0
KTH1 141945Z 19011KT 31/22 A2991 RMK A01 T03060216  RH  058%=      5-min Rain = 0
KTH1 141946Z 18012KT 31/21 A2991 RMK A01 T03080210  RH  056%=      5-min Rain = 0
KTH1 141947Z 20008KT 31/21 A2991 RMK A01 T03070208  RH  056%=      5-min Rain = 0
KTH1 141948Z 19008KT 31/21 A2991 RMK A01 T03060213  RH  058%=      5-min Rain = 0
KTH1 141949Z 17010G15KT 31/21 A2991 RMK A01 T03060211  RH  057%=      5-min Rain = 0
KTH1 141950Z 19010KT 31/21 A2991 RMK A01 T03050211  RH  057%=      5-min Rain = 0
KTH1 141951Z 19013KT 30/21 A2991 RMK A01 T03030206  RH  056%=      5-min Rain = 0
KTH1 141952Z 18012KT 30/21 A2991 RMK A01 T03000207  RH  057%=      5-min Rain = 0
KTH1 141953Z 18013KT 30/21 A2991 RMK A01 T02980205  RH  058%=      5-min Rain = 0
KTH1 141954Z 18012KT 30/20 A2991 RMK A01 T02960204  RH  058%=      5-min Rain = 0
KTH1 141955Z 19011G16KT 29/21 A2991 RMK A01 T02940206  RH  059%=      5-min Rain = 0
KTH1 141956Z 19010KT 29/21 A2991 RMK A01 T02930205  RH  059%=      5-min Rain = 0
KTH1 141957Z 18007G12KT 29/21 A2991 RMK A01 T02920205  RH  059%=      5-min Rain = 0
KTH1 141958Z 18007KT 29/21 A2991 RMK A01 T02920206  RH  060%=      5-min Rain = 0
KTH1 141959Z 18007KT 29/21 A2991 RMK A01 T02930208  RH  060%=      5-min Rain = 0
KTH1 142000Z 17006KT 30/21 A2991 RMK A01 T02950212  RH  061%=      5-min Rain = 0
KTH1 142001Z 16010KT 30/21 A2991 RMK A01 T02980211  RH  060%=      5-min Rain = 0
KTH1 142002Z 16008KT 30/21 A2991 RMK A01 T02990210  RH  059%=      5-min Rain = 0
KTH1 142003Z 16010KT 30/21 A2991 RMK A01 T02990210  RH  059%=      5-min Rain = 0
KTH1 142004Z 15012KT 30/21 A2991 RMK A01 T02980207  RH  058%=      5-min Rain = 0
KTH1 142005Z 17008G14KT 30/21 A2991 RMK A01 T02970209  RH  059%=      5-min Rain = 0
KTH1 142006Z 16009KT 30/21 A2991 RMK A01 T02960209  RH  059%=      5-min Rain = 0
KTH1 142007Z 17008KT 30/21 A299 RMK A01 T02960209  RH  059%=      5-min Rain = 0
KTH1 142008Z 17009G14KT 30/21 A299 RMK A01 T02960211  RH  060%=      5-min Rain = 0
KTH1 142009Z 16010KT 30/21 A299 RMK A01 T02970208  RH  059%=      5-min Rain = 0
KTH1 142010Z 17013KT 30/21 A299 RMK A01 T02970209  RH  059%=      5-min Rain = 0
KTH1 142011Z 17012KT 30/21 A299 RMK A01 T02960208  RH  059%=      5-min Rain = 0
KTH1 142012Z 17010G15KT 30/21 A299 RMK A01 T02950208  RH  060%=      5-min Rain = 0
KTH1 142013Z 16012KT 29/21 A299 RMK A01 T02940207  RH  060%=      5-min Rain = 0
KTH1 142014Z 16013KT 29/21 A299 RMK A01 T02930207  RH  060%=      5-min Rain = 0
KTH1 142015Z 16012KT 29/21 A299 RMK A01 T02930208  RH  060%=      5-min Rain = 0
KTH1 142016Z 16013KT 29/21 A299 RMK A01 T02930206  RH  060%=      5-min Rain = 0
KTH1 142017Z 16011KT 29/21 A299 RMK A01 T02920206  RH  060%=      5-min Rain = 0
KTH1 142018Z 16010KT 29/21 A299 RMK A01 T02910206  RH  060%=      5-min Rain = 0
KTH1 142019Z 16007KT 29/21 A299 RMK A01 T02900209  RH  062%=      5-min Rain = 0
KTH1 142020Z 16010KT 29/21 A299 RMK A01 T02910209  RH  062%=      5-min Rain = 0
KTH1 142021Z 16009KT 29/21 A299 RMK A01 T02920208  RH  061%=      5-min Rain = 0
KTH1 142022Z 16006G11KT 29/21 A299 RMK A01 T02920210  RH  061%=      5-min Rain = 0
KTH1 142023Z 17012KT 29/21 A2989 RMK A01 T02920210  RH  061%=      5-min Rain = 0
KTH1 142024Z 16011KT 29/21 A2989 RMK A01 T02930209  RH  061%=      5-min Rain = 0
KTH1 142025Z 17008KT 29/21 A2989 RMK A01 T02930209  RH  061%=      5-min Rain = 0
KTH1 142026Z 18009KT 29/21 A2989 RMK A01 T02930212  RH  062%=      5-min Rain = 0
KTH1 142027Z 17009G15KT 29/21 A2989 RMK A01 T02930209  RH  061%=      5-min Rain = 0
KTH1 142028Z 17009KT 29/21 A2989 RMK A01 T02940209  RH  060%=      5-min Rain = 0
KTH1 142029Z 17009KT 30/21 A2989 RMK A01 T02950211  RH  060%=      5-min Rain = 0
KTH1 142030Z 18013KT 30/21 A2989 RMK A01 T02960210  RH  060%=      5-min Rain = 0
KTH1 142031Z 18012KT 30/21 A2989 RMK A01 T02970207  RH  058%=      5-min Rain = 0
KTH1 142032Z 17009KT 30/21 A2989 RMK A01 T02970210  RH  059%=      5-min Rain = 0
KTH1 142033Z 17008KT 30/21 A2989 RMK A01 T02980211  RH  060%=      5-min Rain = 0
KTH1 142034Z 18006KT 30/21 A2989 RMK A01 T03000214  RH  060%=      5-min Rain = 0
KTH1 142035Z 18008KT 30/22 A2989 RMK A01 T03020216  RH  060%=      5-min Rain = 0
KTH1 142036Z 18009KT 30/21 A2989 RMK A01 T03040212  RH  058%=      5-min Rain = 0
KTH1 142037Z 20010KT 30/21 A2989 RMK A01 T03040213  RH  058%=      5-min Rain = 0
KTH1 142038Z 17008KT 30/21 A2989 RMK A01 T03040212  RH  058%=      5-min Rain = 0
KTH1 142039Z 16009KT 30/21 A2989 RMK A01 T03030212  RH  058%=      5-min Rain = 0
KTH1 142040Z 19008KT 30/22 A2989 RMK A01 T03030215  RH  059%=      5-min Rain = 0
KTH1 142041Z 16008KT 30/21 A2989 RMK A01 T03030213  RH  058%=      5-min Rain = 0
KTH1 142042Z 19008KT 30/21 A2989 RMK A01 T03030214  RH  059%=      5-min Rain = 0
KTH1 142043Z 19011KT 30/21 A2989 RMK A01 T03020212  RH  058%=      5-min Rain = 0
KTH1 142044Z 18010KT 30/21 A2989 RMK A01 T03000206  RH  057%=      5-min Rain = 0
KTH1 142045Z 16010G15KT 30/21 A2989 RMK A01 T02980209  RH  059%=      5-min Rain = 0
KTH1 142046Z 18008KT 30/21 A2989 RMK A01 T02970211  RH  060%=      5-min Rain = 0
KTH1 142047Z 17009KT 30/21 A2989 RMK A01 T02970209  RH  059%=      5-min Rain = 0
KTH1 142048Z 16011KT 30/21 A2989 RMK A01 T02970207  RH  058%=      5-min Rain = 0
KTH1 142049Z 15013KT 30/21 A2989 RMK A01 T02960206  RH  059%=      5-min Rain = 0
KTH1 142050Z 16010KT 30/21 A2989 RMK A01 T02950207  RH  059%=      5-min Rain = 0
KTH1 142051Z 17009KT 30/21 A2989 RMK A01 T02950209  RH  060%=      5-min Rain = 0
KTH1 142052Z 18010KT 30/21 A2989 RMK A01 T02950208  RH  060%=      5-min Rain = 0
KTH1 142053Z 18010KT 30/21 A2989 RMK A01 T02950207  RH  059%=      5-min Rain = 0
KTH1 142054Z 18012KT 30/20 A2989 RMK A01 T02950203  RH  058%=      5-min Rain = 0
KTH1 142055Z 18010KT 29/20 A2989 RMK A01 T02940204  RH  059%=      5-min Rain = 0
KTH1 142056Z 17012KT 29/20 A2989 RMK A01 T02930204  RH  059%=      5-min Rain = 0
KTH1 142057Z 18010KT 29/20 A2989 RMK A01 T02930204  RH  059%=      5-min Rain = 0
KTH1 142058Z 20010KT 29/21 A2989 RMK A01 T02930205  RH  059%=      5-min Rain = 0
KTH1 142059Z 20010KT 29/20 A2989 RMK A01 T02930204  RH  059%=      5-min Rain = 0
KTH1 142100Z 19011KT 29/20 A2989 RMK A01 T02910203  RH  059%=      5-min Rain = 0
KTH1 142101Z 19011KT 29/20 A2988 RMK A01 T02900201  RH  059%=      5-min Rain = 0
KTH1 142102Z 19010KT 29/20 A2988 RMK A01 T02890203  RH  060%=      5-min Rain = 0
KTH1 142103Z 19010KT 29/20 A2988 RMK A01 T02890204  RH  060%=      5-min Rain = 0
KTH1 142104Z 19012KT 29/20 A2988 RMK A01 T02880203  RH  060%=      5-min Rain = 0
KTH1 142105Z 19008KT 29/20 A2988 RMK A01 T02880204  RH  060%=      5-min Rain = 0
KTH1 142106Z 18010G16KT 29/21 A2988 RMK A01 T02880205  RH  061%=      5-min Rain = 0
KTH1 142107Z 19013G18KT 29/20 A2988 RMK A01 T02870203  RH  060%=      5-min Rain = 0
KTH1 142108Z 19011KT 29/20 A2988 RMK A01 T02860203  RH  061%=      5-min Rain = 0
KTH1 142109Z 19011G17KT 29/20 A2988 RMK A01 T02850204  RH  061%=      5-min Rain = 0
KTH1 142110Z 19010KT 28/20 A2988 RMK A01 T02840203  RH  061%=      5-min Rain = 0
KTH1 142111Z 19011KT 28/20 A2988 RMK A01 T02840203  RH  062%=      5-min Rain = 0
KTH1 142112Z 19010G15KT 28/20 A2988 RMK A01 T02830204  RH  062%=      5-min Rain = 0
KTH1 142113Z 19010KT 28/20 A2987 RMK A01 T02830203  RH  062%=      5-min Rain = 0
KTH1 142114Z 20011G16KT 28/20 A2987 RMK A01 T02830202  RH  061%=      5-min Rain = 0
KTH1 142115Z 19009KT 28/20 A2987 RMK A01 T02830202  RH  062%=      5-min Rain = 0
KTH1 142116Z 18006KT 28/20 A2987 RMK A01 T02830203  RH  062%=      5-min Rain = 0
KTH1 142117Z 19008G14KT 28/21 A2987 RMK A01 T02830206  RH  063%=      5-min Rain = 0
KTH1 142118Z 19010KT 28/20 A2987 RMK A01 T02830203  RH  062%=      5-min Rain = 0
KTH1 142119Z 20009KT 28/20 A2987 RMK A01 T02840204  RH  062%=      5-min Rain = 0
KTH1 142120Z 18008G14KT 28/20 A2987 RMK A01 T02840204  RH  062%=      5-min Rain = 0
KTH1 142121Z 20010KT 28/20 A2987 RMK A01 T02840202  RH  061%=      5-min Rain = 0
KTH1 142122Z 20010KT 28/20 A2986 RMK A01 T02840202  RH  061%=      5-min Rain = 0
KTH1 142123Z 19010G15KT 28/20 A2986 RMK A01 T02840201  RH  061%=      5-min Rain = 0
KTH1 142124Z 19010KT 28/20 A2986 RMK A01 T02840202  RH  061%=      5-min Rain = 0
KTH1 142125Z 20010KT 28/20 A2986 RMK A01 T02840200  RH  061%=      5-min Rain = 0
KTH1 142126Z 19007KT 28/20 A2986 RMK A01 T02840201  RH  061%=      5-min Rain = 0
KTH1 142127Z 18007KT 28/20 A2986 RMK A01 T02840204  RH  062%=      5-min Rain = 0
KTH1 142128Z 18007KT 29/21 A2986 RMK A01 T02850206  RH  062%=      5-min Rain = 0
KTH1 142129Z 19010KT 29/20 A2986 RMK A01 T02860204  RH  061%=      5-min Rain = 0
KTH1 142130Z 18009KT 29/20 A2986 RMK A01 T02860202  RH  060%=      5-min Rain = 0
KTH1 142131Z 18011KT 29/20 A2986 RMK A01 T02860202  RH  060%=      5-min Rain = 0
KTH1 142132Z 18012KT 29/20 A2986 RMK A01 T02860201  RH  060%=      5-min Rain = 0
KTH1 142133Z 18010KT 29/20 A2986 RMK A01 T02860200  RH  060%=      5-min Rain = 0
KTH1 142134Z 20010KT 29/20 A2986 RMK A01 T02860201  RH  060%=      5-min Rain = 0
KTH1 142135Z 19010KT 29/20 A2986 RMK A01 T02860202  RH  060%=      5-min Rain = 0
KTH1 142136Z 19007KT 29/20 A2985 RMK A01 T02860202  RH  060%=      5-min Rain = 0
KTH1 142137Z 18009KT 29/20 A2985 RMK A01 T02870203  RH  061%=      5-min Rain = 0
KTH1 142138Z 17009KT 29/21 A2985 RMK A01 T02870205  RH  061%=      5-min Rain = 0
KTH1 142139Z 19007KT 29/21 A2985 RMK A01 T02870205  RH  061%=      5-min Rain = 0
KTH1 142140Z 17006KT 29/21 A2985 RMK A01 T02870205  RH  061%=      5-min Rain = 0
KTH1 142141Z 17006G11KT 29/21 A2985 RMK A01 T02880207  RH  062%=      5-min Rain = 0
KTH1 142142Z 17012KT 29/20 A2985 RMK A01 T02880203  RH  060%=      5-min Rain = 0
KTH1 142143Z 18011KT 29/20 A2985 RMK A01 T02880201  RH  059%=      5-min Rain = 0
KTH1 142144Z 18011KT 29/20 A2985 RMK A01 T02880201  RH  059%=      5-min Rain = 0
KTH1 142145Z 17009KT 29/20 A2985 RMK A01 T02870201  RH  060%=      5-min Rain = 0
KTH1 142146Z 18009KT 29/20 A2985 RMK A01 T02870203  RH  060%=      5-min Rain = 0
KTH1 142147Z 20009KT 29/20 A2985 RMK A01 T02870204  RH  061%=      5-min Rain = 0
KTH1 142148Z 19009KT 29/20 A2985 RMK A01 T02870203  RH  060%=      5-min Rain = 0
KTH1 142149Z 17008KT 29/20 A2985 RMK A01 T02870203  RH  060%=      5-min Rain = 0
KTH1 142150Z 19009G14KT 29/20 A2985 RMK A01 T02880204  RH  061%=      5-min Rain = 0
KTH1 142151Z 16008KT 29/21 A2985 RMK A01 T02890207  RH  061%=      5-min Rain = 0
KTH1 142152Z 16009KT 29/20 A2985 RMK A01 T02890204  RH  060%=      5-min Rain = 0
KTH1 142153Z 16008G14KT 29/21 A2985 RMK A01 T02900207  RH  061%=      5-min Rain = 0
KTH1 142154Z 16010KT 29/21 A2985 RMK A01 T02900205  RH  060%=      5-min Rain = 0
KTH1 142155Z 16011KT 29/20 A2985 RMK A01 T02910203  RH  059%=      5-min Rain = 0
KTH1 142156Z 16009KT 29/20 A2985 RMK A01 T02910204  RH  059%=      5-min Rain = 0
KTH1 142157Z 17012KT 29/20 A2985 RMK A01 T02910204  RH  059%=      5-min Rain = 0
KTH1 142158Z 17008KT 29/20 A2985 RMK A01 T02910204  RH  060%=      5-min Rain = 0
KTH1 142159Z 17006KT 29/21 A2985 RMK A01 T02910207  RH  061%=      5-min Rain = 0
KTH1 142200Z 16009KT 29/21 A2985 RMK A01 T02910206  RH  060%=      5-min Rain = 0
KTH1 142201Z 17010KT 29/21 A2985 RMK A01 T02910205  RH  060%=      5-min Rain = 0
KTH1 142202Z 18008KT 29/21 A2985 RMK A01 T02900206  RH  060%=      5-min Rain = 0
KTH1 142203Z 17006KT 29/21 A2985 RMK A01 T02900207  RH  061%=      5-min Rain = 0
KTH1 142204Z 18008KT 29/21 A2985 RMK A01 T02900207  RH  061%=      5-min Rain = 0
KTH1 142205Z 17005KT 29/21 A2985 RMK A01 T02900206  RH  061%=      5-min Rain = 0
KTH1 142206Z 18007KT 29/21 A2985 RMK A01 T02890209  RH  062%=      5-min Rain = 0
KTH1 142207Z 17006KT 29/21 A2985 RMK A01 T02890209  RH  062%=      5-min Rain = 0
KTH1 142208Z 17008G13KT 29/21 A2985 RMK A01 T02890206  RH  061%=      5-min Rain = 0
KTH1 142209Z 17009KT 29/21 A2985 RMK A01 T02880205  RH  061%=      5-min Rain = 0
KTH1 142210Z 18009KT 29/21 A2985 RMK A01 T02890206  RH  061%=      5-min Rain = 0
KTH1 142211Z 17008KT 29/21 A2985 RMK A01 T02880205  RH  061%=      5-min Rain = 0
KTH1 142212Z 17010KT 29/20 A2985 RMK A01 T02890204  RH  060%=      5-min Rain = 0
KTH1 142213Z 17010KT 29/20 A2985 RMK A01 T02890203  RH  060%=      5-min Rain = 0
KTH1 142214Z 17007KT 29/21 A2985 RMK A01 T02890205  RH  060%=      5-min Rain = 0
KTH1 142215Z 18008KT 29/21 A2984 RMK A01 T02890205  RH  061%=      5-min Rain = 0
KTH1 142216Z 18007KT 29/21 A2984 RMK A01 T02890206  RH  061%=      5-min Rain = 0
KTH1 142217Z 17005KT 29/21 A2984 RMK A01 T02890208  RH  062%=      5-min Rain = 0
KTH1 142218Z 16007G12KT 29/21 A2984 RMK A01 T02890209  RH  062%=      5-min Rain = 0
KTH1 142219Z 16010KT 29/21 A2984 RMK A01 T02890207  RH  061%=      5-min Rain = 0
KTH1 142220Z 17010KT 29/21 A2984 RMK A01 T02890207  RH  061%=      5-min Rain = 0
KTH1 142221Z 18013KT 29/21 A2984 RMK A01 T02880205  RH  061%=      5-min Rain = 0
KTH1 142222Z 18009G14KT 29/21 A2984 RMK A01 T02880205  RH  061%=      5-min Rain = 0
KTH1 142223Z 17009KT 29/21 A2984 RMK A01 T02880207  RH  061%=      5-min Rain = 0
KTH1 142224Z 17011G16KT 29/20 A2984 RMK A01 T02880203  RH  060%=      5-min Rain = 0
KTH1 142225Z 18009KT 29/20 A2984 RMK A01 T02880204  RH  060%=      5-min Rain = 0
KTH1 142226Z 17010KT 29/20 A2984 RMK A01 T02870203  RH  060%=      5-min Rain = 0
KTH1 142227Z 18009KT 29/21 A2984 RMK A01 T02870205  RH  061%=      5-min Rain = 0
KTH1 142228Z 17007KT 29/21 A2984 RMK A01 T02870206  RH  062%=      5-min Rain = 0
KTH1 142229Z 17006KT 29/21 A2984 RMK A01 T02860207  RH  062%=      5-min Rain = 0
KTH1 142230Z 17006KT 29/21 A2985 RMK A01 T02860207  RH  062%=      5-min Rain = 0
KTH1 142231Z 16009KT 29/21 A2985 RMK A01 T02860207  RH  062%=      5-min Rain = 0
KTH1 142232Z 16009KT 29/21 A2984 RMK A01 T02860206  RH  062%=      5-min Rain = 0
KTH1 142233Z 17008G14KT 29/21 A2984 RMK A01 T02850206  RH  062%=      5-min Rain = 0
KTH1 142234Z 17009KT 29/21 A2984 RMK A01 T02850206  RH  062%=      5-min Rain = 0
KTH1 142235Z 15009KT 29/21 A2984 RMK A01 T02850207  RH  063%=      5-min Rain = 0
KTH1 142236Z 15008KT 29/21 A2985 RMK A01 T02850207  RH  063%=      5-min Rain = 0
KTH1 142237Z 16010KT 29/21 A2985 RMK A01 T02850207  RH  063%=      5-min Rain = 0
KTH1 142238Z 16008KT 28/21 A2985 RMK A01 T02840207  RH  063%=      5-min Rain = 0
KTH1 142239Z 17009KT 28/21 A2985 RMK A01 T02840207  RH  063%=      5-min Rain = 0
KTH1 142240Z 16008KT 28/21 A2985 RMK A01 T02830206  RH  063%=      5-min Rain = 0
KTH1 142241Z 16007KT 28/21 A2985 RMK A01 T02830207  RH  063%=      5-min Rain = 0
KTH1 142242Z 15006KT 28/21 A2985 RMK A01 T02830208  RH  064%=      5-min Rain = 0
KTH1 142243Z 16005KT 28/21 A2985 RMK A01 T02820209  RH  064%=      5-min Rain = 0
KTH1 142244Z 16005KT 28/21 A2985 RMK A01 T02820209  RH  064%=      5-min Rain = 0
KTH1 142245Z 16006KT 28/21 A2985 RMK A01 T02820210  RH  065%=      5-min Rain = 0
KTH1 142246Z 16004KT 28/21 A2985 RMK A01 T02810210  RH  065%=      5-min Rain = 0
KTH1 142247Z 16007KT 28/21 A2985 RMK A01 T02810210  RH  065%=      5-min Rain = 0
KTH1 142248Z 17008KT 28/21 A2985 RMK A01 T02810209  RH  065%=      5-min Rain = 0
KTH1 142249Z 17008KT 28/21 A2985 RMK A01 T02810208  RH  065%=      5-min Rain = 0
KTH1 142250Z 16007KT 28/21 A2985 RMK A01 T02810207  RH  064%=      5-min Rain = 0
KTH1 142251Z 17008KT 28/21 A2985 RMK A01 T02810207  RH  064%=      5-min Rain = 0
KTH1 142252Z 17007KT 28/21 A2985 RMK A01 T02810206  RH  064%=      5-min Rain = 0
KTH1 142253Z 17005KT 28/21 A2985 RMK A01 T02810206  RH  064%=      5-min Rain = 0
KTH1 142254Z 16008KT 28/21 A2985 RMK A01 T02800207  RH  064%=      5-min Rain = 0
KTH1 142255Z 18007KT 28/21 A2985 RMK A01 T02800206  RH  064%=      5-min Rain = 0
KTH1 142256Z 17007KT 28/21 A2985 RMK A01 T02800206  RH  064%=      5-min Rain = 0
KTH1 142257Z 17009KT 28/21 A2985 RMK A01 T02790205  RH  064%=      5-min Rain = 0
KTH1 142258Z 16007KT 28/20 A2985 RMK A01 T02790204  RH  064%=      5-min Rain = 0
KTH1 142259Z 16006KT 28/21 A2985 RMK A01 T02790205  RH  064%=      5-min Rain = 0
KTH1 142300Z 15008KT 28/21 A2985 RMK A01 T02790205  RH  064%=      5-min Rain = 0
KTH1 142301Z 16008KT 28/21 A2985 RMK A01 T02790205  RH  064%=      5-min Rain = 0
KTH1 142302Z 15007KT 28/21 A2985 RMK A01 T02790205  RH  064%=      5-min Rain = 0
KTH1 142303Z 16005KT 28/21 A2985 RMK A01 T02780205  RH  064%=      5-min Rain = 0
KTH1 142304Z 16009KT 28/21 A2985 RMK A01 T02780205  RH  064%=      5-min Rain = 0
KTH1 142305Z 16006KT 28/20 A2985 RMK A01 T02770204  RH  064%=      5-min Rain = 0
KTH1 142306Z 17007KT 28/21 A2985 RMK A01 T02770205  RH  065%=      5-min Rain = 0
KTH1 142307Z 17009KT 28/20 A2985 RMK A01 T02770204  RH  064%=      5-min Rain = 0
KTH1 142308Z 17007KT 28/20 A2985 RMK A01 T02770203  RH  064%=      5-min Rain = 0
KTH1 142309Z 17007KT 28/20 A2985 RMK A01 T02770204  RH  064%=      5-min Rain = 0
KTH1 142310Z 17009KT 28/20 A2985 RMK A01 T02770203  RH  064%=      5-min Rain = 0
KTH1 142311Z 18008KT 28/20 A2984 RMK A01 T02770203  RH  064%=      5-min Rain = 0
KTH1 142312Z 17007KT 28/20 A2984 RMK A01 T02770203  RH  064%=      5-min Rain = 0
KTH1 142313Z 17007KT 28/20 A2984 RMK A01 T02770204  RH  064%=      5-min Rain = 0
KTH1 142314Z 16008KT 28/20 A2984 RMK A01 T02770203  RH  064%=      5-min Rain = 0
KTH1 142315Z 16006KT 28/20 A2984 RMK A01 T02770204  RH  064%=      5-min Rain = 0
KTH1 142316Z 16005KT 28/21 A2984 RMK A01 T02770205  RH  065%=      5-min Rain = 0
KTH1 142317Z 15005KT 28/21 A2984 RMK A01 T02760205  RH  065%=      5-min Rain = 0
KTH1 142318Z 15007KT 28/21 A2984 RMK A01 T02760205  RH  065%=      5-min Rain = 0
KTH1 142319Z 15006KT 28/21 A2984 RMK A01 T02750205  RH  065%=      5-min Rain = 0
KTH1 142320Z 16005KT 28/21 A2984 RMK A01 T02750206  RH  066%=      5-min Rain = 0
KTH1 142321Z 14005KT 28/21 A2984 RMK A01 T02750206  RH  066%=      5-min Rain = 0
KTH1 142322Z 15006KT 28/21 A2984 RMK A01 T02750206  RH  066%=      5-min Rain = 0
KTH1 142323Z 16005KT 28/21 A2984 RMK A01 T02750206  RH  066%=      5-min Rain = 0
KTH1 142324Z 16007KT 27/21 A2984 RMK A01 T02740206  RH  066%=      5-min Rain = 0
KTH1 142325Z 16007KT 27/21 A2984 RMK A01 T02740206  RH  066%=      5-min Rain = 0
KTH1 142326Z 15006KT 27/21 A2984 RMK A01 T02740205  RH  066%=      5-min Rain = 0
KTH1 142327Z 16006KT 27/21 A2984 RMK A01 T02740206  RH  066%=      5-min Rain = 0
KTH1 142328Z 16006KT 27/21 A2984 RMK A01 T02740206  RH  066%=      5-min Rain = 0
KTH1 142329Z 15006KT 27/21 A2984 RMK A01 T02740207  RH  067%=      5-min Rain = 0
KTH1 142330Z 15006KT 27/21 A2984 RMK A01 T02740206  RH  066%=      5-min Rain = 0
KTH1 142331Z 15006KT 27/21 A2983 RMK A01 T02740205  RH  066%=      5-min Rain = 0
KTH1 142332Z 15006KT 27/21 A2983 RMK A01 T02740205  RH  066%=      5-min Rain = 0
KTH1 142333Z 14005KT 28/21 A2983 RMK A01 T02750206  RH  066%=      5-min Rain = 0
KTH1 142334Z 15006KT 28/21 A2983 RMK A01 T02750206  RH  066%=      5-min Rain = 0
KTH1 142335Z 14005KT 28/21 A2983 RMK A01 T02750206  RH  066%=      5-min Rain = 0
KTH1 142336Z 15007KT 28/21 A2983 RMK A01 T02750206  RH  066%=      5-min Rain = 0
KTH1 142337Z 15006KT 28/21 A2983 RMK A01 T02750206  RH  066%=      5-min Rain = 0
KTH1 142338Z 15005KT 28/21 A2983 RMK A01 T02750206  RH  066%=      5-min Rain = 0
KTH1 142339Z 15005KT 28/21 A2983 RMK A01 T02760207  RH  066%=      5-min Rain = 0
KTH1 142340Z 15006KT 28/21 A2983 RMK A01 T02760208  RH  066%=      5-min Rain = 0
KTH1 142341Z 14005KT 28/21 A2982 RMK A01 T02760207  RH  066%=      5-min Rain = 0
KTH1 142342Z 14005KT 28/21 A2982 RMK A01 T02760209  RH  067%=      5-min Rain = 0
KTH1 142343Z 15004KT 28/21 A2982 RMK A01 T02760209  RH  067%=      5-min Rain = 0
KTH1 142344Z 14005KT 28/21 A2982 RMK A01 T02760209  RH  067%=      5-min Rain = 0
KTH1 142345Z 16005KT 28/21 A2982 RMK A01 T02760209  RH  067%=      5-min Rain = 0
KTH1 142346Z 15006KT 28/21 A2982 RMK A01 T02760208  RH  067%=      5-min Rain = 0
KTH1 142347Z 15006KT 28/21 A2982 RMK A01 T02760208  RH  066%=      5-min Rain = 0
KTH1 142348Z 15006KT 28/21 A2982 RMK A01 T02760208  RH  066%=      5-min Rain = 0
KTH1 142349Z 14007KT 28/21 A2982 RMK A01 T02770208  RH  066%=      5-min Rain = 0
KTH1 142350Z 15007KT 28/21 A2982 RMK A01 T02770208  RH  066%=      5-min Rain = 0
KTH1 142351Z 15006KT 28/21 A2982 RMK A01 T02780208  RH  066%=      5-min Rain = 0
KTH1 142352Z 15007KT 28/21 A2982 RMK A01 T02780207  RH  065%=      5-min Rain = 0
KTH1 142353Z 14006KT 28/21 A2982 RMK A01 T02780207  RH  065%=      5-min Rain = 0
KTH1 142354Z 15007KT 28/21 A2982 RMK A01 T02780208  RH  066%=      5-min Rain = 0
KTH1 142355Z 15006KT 28/21 A2983 RMK A01 T02790208  RH  066%=      5-min Rain = 0
KTH1 142356Z 15006KT 28/21 A2983 RMK A01 T02780208  RH  066%=      5-min Rain = 0
KTH1 142357Z 15006KT 28/21 A2983 RMK A01 T02780208  RH  065%=      5-min Rain = 0
KTH1 142358Z 15006KT 28/21 A2983 RMK A01 T02780208  RH  066%=      5-min Rain = 0
KTH1 142359Z 14007KT 28/21 A2983 RMK A01 T02780208  RH  066%=      5-min Rain = 0
KTH1 150000Z 14006KT 28/21 A2982 RMK A01 T02780208  RH  065%=      5-min Rain = 0
KTH1 150001Z 14007KT 28/21 A2982 RMK A01 T02780208  RH  066%=      5-min Rain = 0
KTH1 150002Z 14006KT 28/21 A2982 RMK A01 T02780208  RH  065%=      5-min Rain = 0
KTH1 150003Z 14005KT 28/21 A2982 RMK A01 T02790209  RH  066%=      5-min Rain = 0
KTH1 150004Z 14006KT 28/21 A2982 RMK A01 T02780210  RH  066%=      5-min Rain = 0
KTH1 150005Z 14007KT 28/21 A2982 RMK A01 T02780210  RH  067%=      5-min Rain = 0
KTH1 150006Z 15006KT 28/21 A2982 RMK A01 T02780210  RH  067%=      5-min Rain = 0
KTH1 150007Z 15005KT 28/21 A2982 RMK A01 T02770210  RH  067%=      5-min Rain = 0
KTH1 150008Z 14008KT 28/21 A2982 RMK A01 T02770211  RH  067%=      5-min Rain = 0
KTH1 150009Z 15006KT 28/21 A2982 RMK A01 T02770210  RH  067%=      5-min Rain = 0
KTH1 150010Z 15006KT 28/21 A2982 RMK A01 T02760211  RH  067%=      5-min Rain = 0
KTH1 150011Z 15007KT 28/21 A2982 RMK A01 T02760211  RH  068%=      5-min Rain = 0
KTH1 150012Z 14007KT 28/21 A2982 RMK A01 T02760210  RH  067%=      5-min Rain = 0
KTH1 150013Z 15006KT 28/21 A2982 RMK A01 T02750210  RH  068%=      5-min Rain = 0
KTH1 150014Z 15008KT 28/21 A2982 RMK A01 T02750210  RH  068%=      5-min Rain = 0
KTH1 150015Z 15008KT 28/21 A2982 RMK A01 T02750210  RH  067%=      5-min Rain = 0
KTH1 150016Z 15007KT 28/21 A2982 RMK A01 T02750209  RH  067%=      5-min Rain = 0
KTH1 150017Z 14008KT 28/21 A2981 RMK A01 T02750210  RH  068%=      5-min Rain = 0
KTH1 150018Z 15007KT 27/21 A2981 RMK A01 T02740210  RH  068%=      5-min Rain = 0
KTH1 150019Z 15006KT 27/21 A2981 RMK A01 T02740211  RH  068%=      5-min Rain = 0
KTH1 150020Z 15006KT 27/21 A2981 RMK A01 T02740211  RH  069%=      5-min Rain = 0
KTH1 150021Z 15006KT 27/21 A2981 RMK A01 T02730211  RH  069%=      5-min Rain = 0
KTH1 150022Z 15006KT 27/21 A2981 RMK A01 T02730212  RH  069%=      5-min Rain = 0
KTH1 150023Z 15007KT 27/21 A2981 RMK A01 T02730212  RH  069%=      5-min Rain = 0
KTH1 150024Z 15007KT 27/21 A2981 RMK A01 T02720210  RH  069%=      5-min Rain = 0
KTH1 150025Z 15007KT 27/21 A2981 RMK A01 T02720210  RH  069%=      5-min Rain = 0
KTH1 150026Z 16006KT 27/21 A2981 RMK A01 T02720211  RH  069%=      5-min Rain = 0
KTH1 150027Z 16007KT 27/21 A2981 RMK A01 T02720210  RH  069%=      5-min Rain = 0
KTH1 150028Z 15006KT 27/21 A2981 RMK A01 T02720210  RH  069%=      5-min Rain = 0
KTH1 150029Z 15004KT 27/21 A2982 RMK A01 T02720210  RH  069%=      5-min Rain = 0
KTH1 150030Z 15005KT 27/21 A2982 RMK A01 T02720210  RH  069%=      5-min Rain = 0
KTH1 150031Z 15005KT 27/21 A2982 RMK A01 T02720210  RH  069%=      5-min Rain = 0
KTH1 150032Z 17005KT 27/21 A2982 RMK A01 T02720211  RH  069%=      5-min Rain = 0
KTH1 150033Z 17004KT 27/21 A2982 RMK A01 T02720211  RH  069%=      5-min Rain = 0
KTH1 150034Z 17005KT 27/21 A2982 RMK A01 T02720210  RH  069%=      5-min Rain = 0
KTH1 150035Z 18005KT 27/21 A2982 RMK A01 T02710210  RH  069%=      5-min Rain = 0
KTH1 150036Z 17005KT 27/21 A2982 RMK A01 T02710210  RH  069%=      5-min Rain = 0
KTH1 150037Z 17005KT 27/21 A2982 RMK A01 T02720210  RH  069%=      5-min Rain = 0
KTH1 150038Z 17005KT 27/21 A2982 RMK A01 T02710210  RH  069%=      5-min Rain = 0
KTH1 150039Z 16005KT 27/21 A2982 RMK A01 T02720210  RH  069%=      5-min Rain = 0
KTH1 150040Z 16005KT 27/21 A2982 RMK A01 T02720209  RH  069%=      5-min Rain = 0
KTH1 150041Z 16006KT 27/21 A2983 RMK A01 T02720209  RH  069%=      5-min Rain = 0
KTH1 150042Z 17004KT 27/21 A2983 RMK A01 T02720210  RH  069%=      5-min Rain = 0
KTH1 150043Z 17005KT 27/21 A2983 RMK A01 T02720210  RH  069%=      5-min Rain = 0
KTH1 150044Z 15003KT 27/21 A2983 RMK A01 T02710210  RH  069%=      5-min Rain = 0
KTH1 150045Z 16003KT 27/21 A2983 RMK A01 T02710211  RH  069%=      5-min Rain = 0
KTH1 150046Z 16002KT 27/21 A2983 RMK A01 T02710210  RH  069%=      5-min Rain = 0
KTH1 150047Z 15002KT 27/21 A2983 RMK A01 T02710210  RH  069%=      5-min Rain = 0
KTH1 150048Z 15002KT 27/21 A2983 RMK A01 T02700210  RH  070%=      5-min Rain = 0
KTH1 150049Z 14002KT 27/21 A2984 RMK A01 T02700210  RH  070%=      5-min Rain = 0
KTH1 150050Z 15002KT 27/21 A2984 RMK A01 T02700211  RH  070%=      5-min Rain = 0
KTH1 150051Z 14003KT 27/21 A2984 RMK A01 T02690211  RH  071%=      5-min Rain = 0
KTH1 150052Z 14003KT 27/21 A2984 RMK A01 T02690211  RH  071%=      5-min Rain = 0
KTH1 150053Z 14003KT 27/21 A2984 RMK A01 T02690211  RH  070%=      5-min Rain = 0
KTH1 150054Z 13003KT 27/21 A2984 RMK A01 T02680211  RH  071%=      5-min Rain = 0
KTH1 150055Z 12003KT 27/21 A2984 RMK A01 T02680211  RH  071%=      5-min Rain = 0
KTH1 150056Z 12002KT 27/21 A2984 RMK A01 T02680211  RH  071%=      5-min Rain = 0
KTH1 150057Z 11002KT 27/21 A2985 RMK A01 T02680211  RH  071%=      5-min Rain = 0
KTH1 150058Z 09001KT 27/21 A2985 RMK A01 T02680211  RH  071%=      5-min Rain = 0
KTH1 150059Z 11001KT 27/21 A2985 RMK A01 T02670211  RH  071%=      5-min Rain = 0
KTH1 150100Z 12001KT 27/21 A2985 RMK A01 T02670211  RH  071%=      5-min Rain = 0
KTH1 150101Z 12001KT 27/21 A2985 RMK A01 T02670212  RH  072%=      5-min Rain = 0
KTH1 150102Z 12001KT 27/21 A2985 RMK A01 T02670212  RH  072%=      5-min Rain = 0
KTH1 150103Z 13002KT 27/21 A2985 RMK A01 T02670213  RH  072%=      5-min Rain = 0
KTH1 150104Z 13002KT 27/21 A2985 RMK A01 T02670212  RH  072%=      5-min Rain = 0
KTH1 150105Z 13002KT 27/21 A2985 RMK A01 T02660212  RH  072%=      5-min Rain = 0
KTH1 150106Z 14003KT 27/21 A2985 RMK A01 T02660212  RH  072%=      5-min Rain = 0
KTH1 150107Z 13003KT 27/21 A2985 RMK A01 T02650212  RH  073%=      5-min Rain = 0
KTH1 150108Z 13003KT 27/21 A2985 RMK A01 T02650212  RH  073%=      5-min Rain = 0
KTH1 150109Z 13003KT 26/21 A2985 RMK A01 T02640213  RH  073%=      5-min Rain = 0
KTH1 150110Z 13003KT 26/21 A2985 RMK A01 T02640212  RH  073%=      5-min Rain = 0
KTH1 150111Z 13003KT 26/21 A2985 RMK A01 T02640213  RH  073%=      5-min Rain = 0
KTH1 150112Z 13002KT 26/21 A2985 RMK A01 T02630212  RH  073%=      5-min Rain = 0
KTH1 150113Z 12002KT 26/21 A2985 RMK A01 T02630212  RH  073%=      5-min Rain = 0
KTH1 150114Z 12002KT 26/21 A2986 RMK A01 T02630212  RH  073%=      5-min Rain = 0
KTH1 150115Z 12002KT 26/21 A2986 RMK A01 T02630211  RH  073%=      5-min Rain = 0
KTH1 150116Z 11002KT 26/21 A2986 RMK A01 T02630211  RH  073%=      5-min Rain = 0
KTH1 150117Z 12002KT 26/21 A2986 RMK A01 T02630212  RH  074%=      5-min Rain = 0
KTH1 150118Z 11001KT 26/21 A2986 RMK A01 T02620212  RH  074%=      5-min Rain = 0
KTH1 150119Z 11001KT 26/21 A2986 RMK A01 T02620211  RH  074%=      5-min Rain = 0
KTH1 150120Z 09001KT 26/21 A2986 RMK A01 T02620211  RH  074%=      5-min Rain = 0
KTH1 150121Z 11000KT 26/21 A2986 RMK A01 T02620211  RH  074%=      5-min Rain = 0
KTH1 150122Z 11000KT 26/21 A2986 RMK A01 T02610212  RH  074%=      5-min Rain = 0
KTH1 150123Z 09001KT 26/21 A2986 RMK A01 T02610212  RH  074%=      5-min Rain = 0
KTH1 150124Z 09001KT 26/21 A2986 RMK A01 T02600212  RH  075%=      5-min Rain = 0
KTH1 150125Z 08002KT 26/21 A2986 RMK A01 T02600211  RH  074%=      5-min Rain = 0
KTH1 150126Z 07002KT 26/21 A2986 RMK A01 T02610212  RH  074%=      5-min Rain = 0
KTH1 150127Z 07002KT 26/21 A2986 RMK A01 T02610211  RH  074%=      5-min Rain = 0
KTH1 150128Z 07002KT 26/21 A2986 RMK A01 T02610212  RH  074%=      5-min Rain = 0
KTH1 150129Z 07002KT 26/21 A2986 RMK A01 T02610212  RH  074%=      5-min Rain = 0
KTH1 150130Z 07002KT 26/21 A2986 RMK A01 T02610212  RH  074%=      5-min Rain = 0
KTH1 150131Z 07002KT 26/21 A2986 RMK A01 T02610212  RH  074%=      5-min Rain = 0
KTH1 150132Z 06003KT 26/21 A2986 RMK A01 T02610211  RH  074%=      5-min Rain = 0
KTH1 150133Z 05003KT 26/21 A2986 RMK A01 T02610211  RH  074%=      5-min Rain = 0
KTH1 150134Z 06002KT 26/21 A2986 RMK A01 T02610211  RH  074%=      5-min Rain = 0
KTH1 150135Z 06002KT 26/21 A2986 RMK A01 T02610211  RH  074%=      5-min Rain = 0
KTH1 150136Z 07002KT 26/21 A2986 RMK A01 T02610211  RH  074%=      5-min Rain = 0
KTH1 150137Z 07002KT 26/21 A2987 RMK A01 T02610212  RH  074%=      5-min Rain = 0
KTH1 150138Z 06002KT 26/21 A2987 RMK A01 T02600212  RH  075%=      5-min Rain = 0
KTH1 150139Z 07002KT 26/21 A2987 RMK A01 T02600212  RH  075%=      5-min Rain = 0
KTH1 150140Z 07002KT 26/21 A2987 RMK A01 T02590212  RH  075%=      5-min Rain = 0
KTH1 150141Z 07003KT 26/21 A2987 RMK A01 T02590212  RH  075%=      5-min Rain = 0
KTH1 150142Z 07003KT 26/21 A2987 RMK A01 T02580213  RH  076%=      5-min Rain = 0
KTH1 150143Z 07003KT 26/21 A2987 RMK A01 T02570212  RH  076%=      5-min Rain = 0
KTH1 150144Z 07003KT 26/21 A2987 RMK A01 T02570212  RH  076%=      5-min Rain = 0
KTH1 150145Z 07003KT 26/21 A2987 RMK A01 T02570213  RH  077%=      5-min Rain = 0
KTH1 150151Z 08003KT 25/21 A2987 RMK A01 T02530214  RH  079%=      5-min Rain = 0
KTH1 150152Z 08003KT 25/22 A2987 RMK A01 T02530215  RH  079%=      5-min Rain = 0
KTH1 150153Z 08003KT 25/21 A2987 RMK A01 T02520214  RH  080%=      5-min Rain = 0
KTH1 150154Z 08003KT 25/21 A2987 RMK A01 T02510214  RH  080%=      5-min Rain = 0
KTH1 150155Z 08004KT 25/21 A2988 RMK A01 T02510214  RH  080%=      5-min Rain = 0
KTH1 150156Z 09004KT 25/21 A2988 RMK A01 T02510214  RH  080%=      5-min Rain = 0
KTH1 150157Z 09003KT 25/21 A2988 RMK A01 T02500214  RH  080%=      5-min Rain = 0
KTH1 150158Z 09004KT 25/21 A2987 RMK A01 T02500214  RH  080%=      5-min Rain = 0
KTH1 150159Z 09003KT 25/21 A2987 RMK A01 T02500214  RH  080%=      5-min Rain = 0
KTH1 150200Z 09004KT 25/21 A2987 RMK A01 T02510214  RH  080%=      5-min Rain = 0
KTH1 150201Z 09003KT 25/21 A2987 RMK A01 T02500214  RH  080%=      5-min Rain = 0
KTH1 150202Z 09003KT 25/21 A2987 RMK A01 T02510214  RH  080%=      5-min Rain = 0
KTH1 150203Z 10003KT 25/21 A2987 RMK A01 T02510214  RH  080%=      5-min Rain = 0
KTH1 150204Z 10003KT 25/21 A2987 RMK A01 T02500214  RH  080%=      5-min Rain = 0
KTH1 150205Z 10003KT 25/21 A2987 RMK A01 T02500214  RH  080%=      5-min Rain = 0
KTH1 150206Z 11002KT 25/21 A2987 RMK A01 T02500214  RH  080%=      5-min Rain = 0
KTH1 150207Z 11002KT 25/21 A2987 RMK A01 T02500213  RH  080%=      5-min Rain = 0
KTH1 150208Z 11003KT 25/21 A2987 RMK A01 T02500213  RH  080%=      5-min Rain = 0
KTH1 150209Z 11003KT 25/21 A2987 RMK A01 T02490213  RH  080%=      5-min Rain = 0
KTH1 150210Z 11003KT 25/21 A2987 RMK A01 T02490213  RH  080%=      5-min Rain = 0
KTH1 150211Z 10003KT 25/21 A2987 RMK A01 T02490213  RH  080%=      5-min Rain = 0
KTH1 150212Z 10003KT 25/21 A2987 RMK A01 T02490214  RH  081%=      5-min Rain = 0
KTH1 150213Z 09003KT 25/21 A2987 RMK A01 T02490214  RH  081%=      5-min Rain = 0
KTH1 150214Z 09002KT 25/21 A2987 RMK A01 T02490213  RH  081%=      5-min Rain = 0
KTH1 150215Z 09003KT 25/21 A2987 RMK A01 T02480213  RH  081%=      5-min Rain = 0
KTH1 150216Z 09002KT 25/21 A2987 RMK A01 T02480213  RH  081%=      5-min Rain = 0
KTH1 150217Z 08002KT 25/21 A2988 RMK A01 T02480213  RH  081%=      5-min Rain = 0
KTH1 150218Z 08002KT 25/21 A2988 RMK A01 T02480213  RH  081%=      5-min Rain = 0
KTH1 150219Z 07001KT 25/21 A2988 RMK A01 T02480214  RH  081%=      5-min Rain = 0
KTH1 150220Z 07001KT 25/21 A2988 RMK A01 T02480214  RH  081%=      5-min Rain = 0
KTH1 150221Z 07002KT 25/21 A2988 RMK A01 T02480213  RH  081%=      5-min Rain = 0
KTH1 150222Z 07002KT 25/21 A2988 RMK A01 T02480213  RH  081%=      5-min Rain = 0
KTH1 150223Z 07002KT 25/21 A2988 RMK A01 T02480213  RH  081%=      5-min Rain = 0
KTH1 150224Z 08002KT 25/21 A2988 RMK A01 T02480213  RH  081%=      5-min Rain = 0
KTH1 150225Z 07002KT 25/21 A2988 RMK A01 T02480213  RH  081%=      5-min Rain = 0
KTH1 150226Z 07002KT 25/21 A2988 RMK A01 T02480213  RH  081%=      5-min Rain = 0
KTH1 150227Z 07002KT 25/21 A2989 RMK A01 T02470212  RH  081%=      5-min Rain = 0
KTH1 150228Z 06002KT 25/21 A2989 RMK A01 T02470213  RH  081%=      5-min Rain = 0
KTH1 150229Z 05002KT 25/21 A2989 RMK A01 T02470213  RH  081%=      5-min Rain = 0
KTH1 150230Z 05002KT 25/21 A2989 RMK A01 T02470213  RH  081%=      5-min Rain = 0
KTH1 150231Z 05002KT 25/21 A2989 RMK A01 T02470213  RH  081%=      5-min Rain = 0
KTH1 150232Z 05002KT 25/21 A2989 RMK A01 T02470212  RH  081%=      5-min Rain = 0
KTH1 150233Z 04001KT 25/21 A2989 RMK A01 T02470213  RH  081%=      5-min Rain = 0
KTH1 150234Z 04001KT 25/21 A2989 RMK A01 T02480213  RH  081%=      5-min Rain = 0
KTH1 150235Z 04002KT 25/21 A2989 RMK A01 T02480212  RH  081%=      5-min Rain = 0
KTH1 150236Z 04002KT 25/21 A2989 RMK A01 T02480213  RH  081%=      5-min Rain = 0
KTH1 150237Z 04002KT 25/21 A2989 RMK A01 T02480213  RH  081%=      5-min Rain = 0
KTH1 150238Z 05002KT 25/21 A2989 RMK A01 T02480213  RH  081%=      5-min Rain = 0
KTH1 150239Z 04002KT 25/21 A2989 RMK A01 T02480213  RH  081%=      5-min Rain = 0
KTH1 150240Z 05003KT 25/21 A2989 RMK A01 T02480213  RH  081%=      5-min Rain = 0
KTH1 150241Z 04002KT 25/21 A2989 RMK A01 T02480213  RH  081%=      5-min Rain = 0
KTH1 150242Z 04002KT 25/21 A2989 RMK A01 T02480213  RH  081%=      5-min Rain = 0
KTH1 150243Z 04002KT 25/21 A2989 RMK A01 T02480213  RH  081%=      5-min Rain = 0
KTH1 150244Z 05002KT 25/21 A2989 RMK A01 T02470213  RH  081%=      5-min Rain = 0
KTH1 150245Z 04003KT 25/21 A2989 RMK A01 T02470213  RH  081%=      5-min Rain = 0
KTH1 150246Z 04003KT 25/21 A2989 RMK A01 T02470213  RH  082%=      5-min Rain = 0
KTH1 150247Z 03002KT 25/21 A2989 RMK A01 T02460213  RH  082%=      5-min Rain = 0
KTH1 150248Z 03001KT 25/21 A2989 RMK A01 T02460214  RH  082%=      5-min Rain = 0
KTH1 150249Z 03002KT 25/21 A299 RMK A01 T02460214  RH  082%=      5-min Rain = 0
KTH1 150250Z 02003KT 25/21 A2989 RMK A01 T02450213  RH  083%=      5-min Rain = 0
KTH1 150251Z 02002KT 24/21 A299 RMK A01 T02440213  RH  083%=      5-min Rain = 0
KTH1 150252Z 02002KT 24/21 A299 RMK A01 T02440213  RH  083%=      5-min Rain = 0
KTH1 150253Z 02002KT 24/21 A299 RMK A01 T02440213  RH  083%=      5-min Rain = 0
KTH1 150254Z 02002KT 24/21 A299 RMK A01 T02430213  RH  083%=      5-min Rain = 0
KTH1 150255Z 02002KT 24/21 A299 RMK A01 T02430213  RH  084%=      5-min Rain = 0
KTH1 150256Z 03003KT 24/21 A299 RMK A01 T02420213  RH  084%=      5-min Rain = 0
KTH1 150257Z 03003KT 24/21 A299 RMK A01 T02420213  RH  084%=      5-min Rain = 0
KTH1 150258Z 03003KT 24/21 A299 RMK A01 T02410213  RH  084%=      5-min Rain = 0
KTH1 150259Z 03004KT 24/21 A299 RMK A01 T02410213  RH  084%=      5-min Rain = 0
KTH1 150300Z 04004KT 24/21 A299 RMK A01 T02420212  RH  084%=      5-min Rain = 0
KTH1 150301Z 04004KT 24/21 A299 RMK A01 T02420212  RH  083%=      5-min Rain = 0
KTH1 150302Z 04004KT 24/21 A299 RMK A01 T02430212  RH  083%=      5-min Rain = 0
KTH1 150303Z 04004KT 24/21 A299 RMK A01 T02440212  RH  082%=      5-min Rain = 0
KTH1 150304Z 03004KT 24/21 A299 RMK A01 T02440211  RH  082%=      5-min Rain = 0
KTH1 150305Z 03004KT 25/21 A299 RMK A01 T02450212  RH  082%=      5-min Rain = 0
KTH1 150306Z 04004KT 25/21 A299 RMK A01 T02460212  RH  081%=      5-min Rain = 0
KTH1 150307Z 04004KT 25/21 A2991 RMK A01 T02480212  RH  081%=      5-min Rain = 0
KTH1 150308Z 04005KT 25/21 A2991 RMK A01 T02480212  RH  080%=      5-min Rain = 0
KTH1 150309Z 04004KT 25/21 A2991 RMK A01 T02470211  RH  080%=      5-min Rain = 0
KTH1 150310Z 04004KT 25/21 A2991 RMK A01 T02470211  RH  080%=      5-min Rain = 0
KTH1 150311Z 04002KT 25/21 A2991 RMK A01 T02470211  RH  080%=      5-min Rain = 0
KTH1 150312Z 05004KT 25/21 A2991 RMK A01 T02470211  RH  080%=      5-min Rain = 0
KTH1 150313Z 05003KT 25/21 A2991 RMK A01 T02470211  RH  080%=      5-min Rain = 0
KTH1 150314Z 05004KT 25/21 A2991 RMK A01 T02480211  RH  080%=      5-min Rain = 0
KTH1 150315Z 05004KT 25/21 A2991 RMK A01 T02480211  RH  080%=      5-min Rain = 0
KTH1 150316Z 05004KT 25/21 A2991 RMK A01 T02480211  RH  080%=      5-min Rain = 0
KTH1 150317Z 06004KT 25/21 A2991 RMK A01 T02470211  RH  080%=      5-min Rain = 0
KTH1 150318Z 06003KT 25/21 A2991 RMK A01 T02480211  RH  080%=      5-min Rain = 0
KTH1 150319Z 07003KT 25/21 A2991 RMK A01 T02480211  RH  080%=      5-min Rain = 0
KTH1 150320Z 08003KT 25/21 A2991 RMK A01 T02470211  RH  080%=      5-min Rain = 0
KTH1 150321Z 08003KT 25/21 A2991 RMK A01 T02470212  RH  081%=      5-min Rain = 0
KTH1 150322Z 09002KT 25/21 A2991 RMK A01 T02460212  RH  081%=      5-min Rain = 0
KTH1 150323Z 08003KT 25/21 A2991 RMK A01 T02450212  RH  082%=      5-min Rain = 0
KTH1 150324Z 08003KT 24/21 A2991 RMK A01 T02440212  RH  082%=      5-min Rain = 0
KTH1 150325Z 08004KT 24/21 A2991 RMK A01 T02440211  RH  082%=      5-min Rain = 0
KTH1 150326Z 08003KT 24/21 A2991 RMK A01 T02430211  RH  082%=      5-min Rain = 0
KTH1 150327Z 08003KT 24/21 A2991 RMK A01 T02430212  RH  082%=      5-min Rain = 0
KTH1 150328Z 09003KT 24/21 A2991 RMK A01 T02430211  RH  082%=      5-min Rain = 0
KTH1 150329Z 09003KT 24/21 A2991 RMK A01 T02430211  RH  083%=      5-min Rain = 0
KTH1 150330Z 09004KT 24/21 A2991 RMK A01 T02430211  RH  083%=      5-min Rain = 0
KTH1 150331Z 09003KT 24/21 A2991 RMK A01 T02420211  RH  083%=      5-min Rain = 0
KTH1 150332Z 09003KT 24/21 A2991 RMK A01 T02420211  RH  083%=      5-min Rain = 0
KTH1 150333Z 10003KT 24/21 A2991 RMK A01 T02420211  RH  083%=      5-min Rain = 0
KTH1 150334Z 11003KT 24/21 A2991 RMK A01 T02420211  RH  083%=      5-min Rain = 0
KTH1 150335Z 11003KT 24/21 A2991 RMK A01 T02420211  RH  083%=      5-min Rain = 0
KTH1 150336Z 10003KT 24/21 A2991 RMK A01 T02420211  RH  083%=      5-min Rain = 0
KTH1 150337Z 10003KT 24/21 A2991 RMK A01 T02420211  RH  083%=      5-min Rain = 0
KTH1 150338Z 10003KT 24/21 A2991 RMK A01 T02420210  RH  082%=      5-min Rain = 0
KTH1 150339Z 10002KT 24/21 A2991 RMK A01 T02430211  RH  082%=      5-min Rain = 0
KTH1 150340Z 09002KT 24/21 A2991 RMK A01 T02430210  RH  082%=      5-min Rain = 0
KTH1 150341Z 10002KT 24/21 A2991 RMK A01 T02430210  RH  082%=      5-min Rain = 0
KTH1 150342Z 10000KT 24/21 A2991 RMK A01 T02430210  RH  082%=      5-min Rain = 0
KTH1 150343Z 00000KT 24/21 A2991 RMK A01 T02420211  RH  082%=      5-min Rain = 0
KTH1 150344Z 00000KT 24/21 A2991 RMK A01 T02420211  RH  083%=      5-min Rain = 0
KTH1 150345Z 02001KT 24/21 A2991 RMK A01 T02420212  RH  083%=      5-min Rain = 0
KTH1 150346Z 02001KT 24/21 A2991 RMK A01 T02420212  RH  083%=      5-min Rain = 0
KTH1 150347Z 36002KT 24/21 A2991 RMK A01 T02420212  RH  083%=      5-min Rain = 0
KTH1 150348Z 00003KT 24/21 A2991 RMK A01 T02420212  RH  083%=      5-min Rain = 0
KTH1 150349Z 35003KT 24/21 A2992 RMK A01 T02420211  RH  083%=      5-min Rain = 0
KTH1 150350Z 35004KT 24/21 A2992 RMK A01 T02420210  RH  082%=      5-min Rain = 0
KTH1 150351Z 34004KT 24/21 A2992 RMK A01 T02420211  RH  082%=      5-min Rain = 0
KTH1 150352Z 33003KT 24/21 A2992 RMK A01 T02430211  RH  082%=      5-min Rain = 0
KTH1 150353Z 33003KT 24/21 A2992 RMK A01 T02430211  RH  082%=      5-min Rain = 0
KTH1 150354Z 33003KT 24/21 A2993 RMK A01 T02430211  RH  083%=      5-min Rain = 0
KTH1 150355Z 32004KT 24/21 A2993 RMK A01 T02430211  RH  083%=      5-min Rain = 0
KTH1 150356Z 33003KT 24/21 A2993 RMK A01 T02420211  RH  083%=      5-min Rain = 0
KTH1 150357Z 33006KT 24/21 A2993 RMK A01 T02410212  RH  083%=      5-min Rain = 0
KTH1 150358Z 32007KT 24/21 A2993 RMK A01 T02410212  RH  084%=      5-min Rain = 0
KTH1 150359Z 31007KT 24/21 A2993 RMK A01 T02420212  RH  083%=      5-min Rain = 0
KTH1 150400Z 31007KT 24/21 A2993 RMK A01 T02420213  RH  084%=      5-min Rain = 0
KTH1 150401Z 31007KT 24/21 A2993 RMK A01 T02430213  RH  084%=      5-min Rain = 0
KTH1 150402Z 31007KT 24/21 A2993 RMK A01 T02430213  RH  083%=      5-min Rain = 0
KTH1 150403Z 32006KT 24/21 A2993 RMK A01 T02430212  RH  083%=      5-min Rain = 0
KTH1 150404Z 32004KT 24/21 A2993 RMK A01 T02430213  RH  083%=      5-min Rain = 0
KTH1 150405Z 33002KT 24/21 A2993 RMK A01 T02430212  RH  083%=      5-min Rain = 0
KTH1 150406Z 34003KT 24/21 A2993 RMK A01 T02430212  RH  083%=      5-min Rain = 0
KTH1 150407Z 35002KT 24/21 A2993 RMK A01 T02430211  RH  082%=      5-min Rain = 0
KTH1 150408Z 01003KT 24/21 A2993 RMK A01 T02430210  RH  082%=      5-min Rain = 0
KTH1 150409Z 36003KT 24/21 A2993 RMK A01 T02430210  RH  082%=      5-min Rain = 0
KTH1 150410Z 01003KT 24/21 A2993 RMK A01 T02430210  RH  082%=      5-min Rain = 0
KTH1 150411Z 01003KT 24/21 A2993 RMK A01 T02430210  RH  082%=      5-min Rain = 0
KTH1 150412Z 01003KT 24/21 A2993 RMK A01 T02430210  RH  082%=      5-min Rain = 0
KTH1 150413Z 02003KT 24/21 A2993 RMK A01 T02430210  RH  082%=      5-min Rain = 0
KTH1 150414Z 03003KT 24/21 A2993 RMK A01 T02420210  RH  082%=      5-min Rain = 0
KTH1 150415Z 04003KT 24/21 A2992 RMK A01 T02430210  RH  082%=      5-min Rain = 0
KTH1 150416Z 06002KT 24/21 A2992 RMK A01 T02430210  RH  082%=      5-min Rain = 0
KTH1 150417Z 09003KT 24/21 A2992 RMK A01 T02420210  RH  082%=      5-min Rain = 0
KTH1 150418Z 13004KT 24/21 A2992 RMK A01 T02420210  RH  082%=      5-min Rain = 0
KTH1 150419Z 13004KT 24/21 A2992 RMK A01 T02410210  RH  083%=      5-min Rain = 0
KTH1 150420Z 13004KT 24/21 A2991 RMK A01 T02400210  RH  083%=      5-min Rain = 0
KTH1 150421Z 13005KT 24/21 A2991 RMK A01 T02390210  RH  084%=      5-min Rain = 0
KTH1 150422Z 13005KT 24/21 A2991 RMK A01 T02380210  RH  084%=      5-min Rain = 0
KTH1 150423Z 13004KT 24/21 A2991 RMK A01 T02370210  RH  085%=      5-min Rain = 0
KTH1 150424Z 13004KT 24/21 A2991 RMK A01 T02370210  RH  085%=      5-min Rain = 0
KTH1 150425Z 14003KT 24/21 A2991 RMK A01 T02370210  RH  085%=      5-min Rain = 0
KTH1 150426Z 15003KT 24/21 A2991 RMK A01 T02360209  RH  085%=      5-min Rain = 0
KTH1 150427Z 17002KT 24/21 A2991 RMK A01 T02360209  RH  085%=      5-min Rain = 0
KTH1 150428Z 20001KT 24/21 A2991 RMK A01 T02360209  RH  085%=      5-min Rain = 0
KTH1 150429Z 22001KT 24/21 A2991 RMK A01 T02360210  RH  086%=      5-min Rain = 0
KTH1 150430Z 23001KT 24/21 A2991 RMK A01 T02350210  RH  086%=      5-min Rain = 0
KTH1 150431Z 24001KT 24/21 A2991 RMK A01 T02350211  RH  086%=      5-min Rain = 0
KTH1 150432Z 24000KT 24/21 A2991 RMK A01 T02350212  RH  087%=      5-min Rain = 0
KTH1 150433Z 00000KT 23/21 A2991 RMK A01 T02340211  RH  087%=      5-min Rain = 0
KTH1 150434Z 00000KT 23/21 A2991 RMK A01 T02340210  RH  086%=      5-min Rain = 0
KTH1 150435Z 00000KT 23/21 A2991 RMK A01 T02340211  RH  087%=      5-min Rain = 0
KTH1 150436Z 07001KT 23/21 A2991 RMK A01 T02340210  RH  087%=      5-min Rain = 0
KTH1 150437Z 07001KT 23/21 A2991 RMK A01 T02330210  RH  087%=      5-min Rain = 0
KTH1 150438Z 07001KT 23/21 A299 RMK A01 T02340210  RH  087%=      5-min Rain = 0
KTH1 150439Z 08001KT 23/21 A2991 RMK A01 T02330210  RH  087%=      5-min Rain = 0
KTH1 150440Z 10001KT 23/21 A2991 RMK A01 T02330209  RH  087%=      5-min Rain = 0
KTH1 150441Z 12001KT 23/21 A2991 RMK A01 T02320209  RH  087%=      5-min Rain = 0
KTH1 150442Z 16002KT 23/21 A2991 RMK A01 T02320209  RH  087%=      5-min Rain = 0
KTH1 150443Z 17001KT 23/21 A2991 RMK A01 T02320208  RH  086%=      5-min Rain = 0
KTH1 150444Z 17000KT 23/21 A299 RMK A01 T02330208  RH  086%=      5-min Rain = 0
KTH1 150445Z 00000KT 23/21 A299 RMK A01 T02340208  RH  085%=      5-min Rain = 0
KTH1 150446Z 00000KT 23/21 A299 RMK A01 T02340208  RH  085%=      5-min Rain = 0
KTH1 150447Z 00000KT 23/21 A2991 RMK A01 T02330208  RH  085%=      5-min Rain = 0
KTH1 150448Z 17000KT 23/21 A2991 RMK A01 T02330208  RH  086%=      5-min Rain = 0
KTH1 150449Z 17001KT 23/21 A2991 RMK A01 T02330207  RH  086%=      5-min Rain = 0
KTH1 150450Z 16001KT 23/21 A299 RMK A01 T02320207  RH  086%=      5-min Rain = 0
KTH1 150451Z 14001KT 23/21 A299 RMK A01 T02320208  RH  086%=      5-min Rain = 0
KTH1 150452Z 13001KT 23/21 A299 RMK A01 T02310208  RH  087%=      5-min Rain = 0
KTH1 150453Z 12002KT 23/21 A299 RMK A01 T02310208  RH  087%=      5-min Rain = 0
KTH1 150454Z 12002KT 23/21 A299 RMK A01 T02300208  RH  087%=      5-min Rain = 0
KTH1 150455Z 12002KT 23/21 A299 RMK A01 T02300207  RH  087%=      5-min Rain = 0
KTH1 150456Z 14002KT 23/21 A299 RMK A01 T02300207  RH  087%=      5-min Rain = 0
KTH1 150457Z 16002KT 23/21 A299 RMK A01 T02290207  RH  087%=      5-min Rain = 0
KTH1 150458Z 17002KT 23/21 A299 RMK A01 T02290207  RH  087%=      5-min Rain = 0
KTH1 150459Z 15002KT 23/21 A299 RMK A01 T02290207  RH  088%=      5-min Rain = 0

Page generated in 0.1748 seconds.